Observation data for Sterling City on 01/19/2019      Previous  Date  Next       Current Mesonet Observations  Soil Data  Daily Summary Page  Observations in Plain Language
KSC1 190600Z 32019G25KT 08/M01 A3001 RMK A01 T00821005  RH  054%=      5-min Rain = 0
KSC1 190601Z 32018G26KT 08/M01 A3002 RMK A01 T00821006  RH  054%=      5-min Rain = 0
KSC1 190602Z 33024G30KT 08/M01 A3002 RMK A01 T00811008  RH  053%=      5-min Rain = 0
KSC1 190603Z 32025G32KT 08/M01 A3002 RMK A01 T00811009  RH  053%=      5-min Rain = 0
KSC1 190604Z 32021G26KT 08/M01 A3002 RMK A01 T00801011  RH  053%=      5-min Rain = 0
KSC1 190605Z 31023G30KT 08/M01 A3002 RMK A01 T00791011  RH  053%=      5-min Rain = 0
KSC1 190606Z 31019G27KT 08/M01 A3002 RMK A01 T00791013  RH  052%=      5-min Rain = 0
KSC1 190607Z 32019G26KT 08/M01 A3002 RMK A01 T00781014  RH  052%=      5-min Rain = 0
KSC1 190608Z 31014G24KT 08/M01 A3002 RMK A01 T00771014  RH  052%=      5-min Rain = 0
KSC1 190609Z 32017G28KT 08/M01 A3002 RMK A01 T00771014  RH  052%=      5-min Rain = 0
KSC1 190610Z 31020G27KT 08/M02 A3002 RMK A01 T00761015  RH  052%=      5-min Rain = 0
KSC1 190611Z 31021G26KT 08/M02 A3002 RMK A01 T00751016  RH  052%=      5-min Rain = 0
KSC1 190612Z 31024G32KT 08/M02 A3002 RMK A01 T00751017  RH  052%=      5-min Rain = 0
KSC1 190613Z 32023G30KT 07/M02 A3002 RMK A01 T00741019  RH  052%=      5-min Rain = 0
KSC1 190614Z 32025G30KT 07/M02 A3002 RMK A01 T00741020  RH  051%=      5-min Rain = 0
KSC1 190615Z 32027G39KT 07/M02 A3002 RMK A01 T00731021  RH  051%=      5-min Rain = 0
KSC1 190616Z 32026G33KT 07/M02 A3002 RMK A01 T00731022  RH  051%=      5-min Rain = 0
KSC1 190617Z 32023G30KT 07/M02 A3003 RMK A01 T00731021  RH  051%=      5-min Rain = 0
KSC1 190618Z 31028G36KT 07/M02 A3002 RMK A01 T00711021  RH  052%=      5-min Rain = 0
KSC1 190619Z 31022G29KT 07/M02 A3003 RMK A01 T00701020  RH  052%=      5-min Rain = 0
KSC1 190620Z 32018G25KT 07/M02 A3003 RMK A01 T00701019  RH  053%=      5-min Rain = 0
KSC1 190621Z 31021G29KT 07/M02 A3003 RMK A01 T00691018  RH  054%=      5-min Rain = 0
KSC1 190622Z 32020G27KT 07/M02 A3003 RMK A01 T00691018  RH  054%=      5-min Rain = 0
KSC1 190623Z 32019G24KT 07/M02 A3003 RMK A01 T00681017  RH  054%=      5-min Rain = 0
KSC1 190624Z 32015G22KT 07/M02 A3003 RMK A01 T00671017  RH  055%=      5-min Rain = 0
KSC1 190625Z 32020G27KT 07/M02 A3003 RMK A01 T00671017  RH  055%=      5-min Rain = 0
KSC1 190626Z 32023KT 07/M02 A3003 RMK A01 T00671017  RH  055%=      5-min Rain = 0
KSC1 190627Z 32023G35KT 07/M02 A3003 RMK A01 T00671016  RH  055%=      5-min Rain = 0
KSC1 190628Z 31017G22KT 07/M02 A3003 RMK A01 T00661016  RH  056%=      5-min Rain = 0
KSC1 190629Z 32015KT 07/M02 A3003 RMK A01 T00661016  RH  056%=      5-min Rain = 0
KSC1 190630Z 32019KT 07/M02 A3003 RMK A01 T00661015  RH  056%=      5-min Rain = 0
KSC1 190631Z 32019KT 07/M02 A3003 RMK A01 T00651015  RH  056%=      5-min Rain = 0
KSC1 190632Z 31018KT 07/M02 A3003 RMK A01 T00651016  RH  056%=      5-min Rain = 0
KSC1 190633Z 31018G28KT 07/M02 A3003 RMK A01 T00651016  RH  056%=      5-min Rain = 0
KSC1 190634Z 31023G30KT 07/M02 A3003 RMK A01 T00651017  RH  056%=      5-min Rain = 0
KSC1 190635Z 31019G24KT 07/M02 A3003 RMK A01 T00651018  RH  055%=      5-min Rain = 0
KSC1 190636Z 31016G21KT 06/M02 A3003 RMK A01 T00641019  RH  055%=      5-min Rain = 0
KSC1 190637Z 32022G28KT 06/M02 A3003 RMK A01 T00641019  RH  056%=      5-min Rain = 0
KSC1 190638Z 32025G35KT 06/M02 A3003 RMK A01 T00631020  RH  055%=      5-min Rain = 0
KSC1 190639Z 32018G23KT 06/M02 A3004 RMK A01 T00641020  RH  055%=      5-min Rain = 0
KSC1 190640Z 32017G23KT 06/M02 A3003 RMK A01 T00631020  RH  055%=      5-min Rain = 0
KSC1 190641Z 32015G20KT 06/M02 A3004 RMK A01 T00631020  RH  055%=      5-min Rain = 0
KSC1 190642Z 32017G24KT 06/M02 A3004 RMK A01 T00621020  RH  056%=      5-min Rain = 0
KSC1 190643Z 32014G21KT 06/M02 A3004 RMK A01 T00621020  RH  056%=      5-min Rain = 0
KSC1 190644Z 32015G21KT 06/M02 A3004 RMK A01 T00621020  RH  056%=      5-min Rain = 0
KSC1 190645Z 32016G23KT 06/M02 A3004 RMK A01 T00621020  RH  056%=      5-min Rain = 0
KSC1 190646Z 32019G27KT 06/M02 A3004 RMK A01 T00621020  RH  056%=      5-min Rain = 0
KSC1 190647Z 32019G30KT 06/M02 A3004 RMK A01 T00621021  RH  055%=      5-min Rain = 0
KSC1 190648Z 32026KT 06/M02 A3004 RMK A01 T00631021  RH  055%=      5-min Rain = 0
KSC1 190649Z 32021G27KT 06/M02 A3004 RMK A01 T00631022  RH  055%=      5-min Rain = 0
KSC1 190650Z 32017KT 06/M02 A3005 RMK A01 T00631021  RH  055%=      5-min Rain = 0
KSC1 190651Z 32019G24KT 06/M02 A3004 RMK A01 T00621021  RH  055%=      5-min Rain = 0
KSC1 190652Z 31017G30KT 06/M02 A3005 RMK A01 T00621021  RH  055%=      5-min Rain = 0
KSC1 190653Z 31020G30KT 06/M02 A3005 RMK A01 T00621021  RH  055%=      5-min Rain = 0
KSC1 190654Z 31020G27KT 06/M02 A3005 RMK A01 T00621021  RH  055%=      5-min Rain = 0
KSC1 190655Z 32020G25KT 06/M02 A3005 RMK A01 T00611022  RH  055%=      5-min Rain = 0
KSC1 190656Z 32017KT 06/M02 A3005 RMK A01 T00611022  RH  055%=      5-min Rain = 0
KSC1 190657Z 32016G21KT 06/M02 A3005 RMK A01 T00601022  RH  056%=      5-min Rain = 0
KSC1 190658Z 32015KT 06/M02 A3005 RMK A01 T00591021  RH  056%=      5-min Rain = 0
KSC1 190659Z 32016KT 06/M02 A3005 RMK A01 T00591021  RH  056%=      5-min Rain = 0
KSC1 190700Z 32015G20KT 06/M02 A3005 RMK A01 T00591021  RH  057%=      5-min Rain = 0
KSC1 190701Z 31013G18KT 06/M02 A3005 RMK A01 T00591021  RH  057%=      5-min Rain = 0
KSC1 190702Z 31016KT 06/M02 A3005 RMK A01 T00581021  RH  057%=      5-min Rain = 0
KSC1 190703Z 32012KT 06/M02 A3005 RMK A01 T00581021  RH  057%=      5-min Rain = 0
KSC1 190704Z 32014G19KT 06/M02 A3005 RMK A01 T00581021  RH  057%=      5-min Rain = 0
KSC1 190705Z 31010G15KT 06/M02 A3005 RMK A01 T00571021  RH  057%=      5-min Rain = 0
KSC1 190706Z 32010G15KT 06/M02 A3005 RMK A01 T00561021  RH  058%=      5-min Rain = 0
KSC1 190707Z 31015G22KT 06/M02 A3005 RMK A01 T00561020  RH  058%=      5-min Rain = 0
KSC1 190708Z 32017KT 06/M02 A3005 RMK A01 T00561021  RH  058%=      5-min Rain = 0
KSC1 190709Z 32012G18KT 06/M02 A3006 RMK A01 T00561020  RH  058%=      5-min Rain = 0
KSC1 190710Z 31017G23KT 06/M02 A3006 RMK A01 T00561021  RH  058%=      5-min Rain = 0
KSC1 190711Z 32018G26KT 06/M02 A3006 RMK A01 T00561021  RH  057%=      5-min Rain = 0
KSC1 190712Z 31020G28KT 06/M02 A3006 RMK A01 T00561023  RH  057%=      5-min Rain = 0
KSC1 190713Z 31015G21KT 06/M02 A3006 RMK A01 T00571023  RH  057%=      5-min Rain = 0
KSC1 190714Z 31022G30KT 06/M02 A3006 RMK A01 T00561024  RH  056%=      5-min Rain = 0
KSC1 190715Z 31022G27KT 06/M03 A3006 RMK A01 T00561025  RH  056%=      5-min Rain = 0
KSC1 190716Z 31017G24KT 06/M03 A3006 RMK A01 T00561026  RH  056%=      5-min Rain = 0
KSC1 190717Z 31019G26KT 06/M03 A3006 RMK A01 T00551026  RH  056%=      5-min Rain = 0
KSC1 190718Z 31016G21KT 06/M03 A3006 RMK A01 T00551026  RH  056%=      5-min Rain = 0
KSC1 190719Z 31019G25KT 05/M03 A3006 RMK A01 T00541027  RH  056%=      5-min Rain = 0
KSC1 190720Z 31020G29KT 05/M03 A3006 RMK A01 T00531027  RH  056%=      5-min Rain = 0
KSC1 190721Z 31019KT 05/M03 A3006 RMK A01 T00531028  RH  056%=      5-min Rain = 0
KSC1 190722Z 31018G23KT 05/M03 A3006 RMK A01 T00541027  RH  056%=      5-min Rain = 0
KSC1 190723Z 31020G27KT 05/M03 A3006 RMK A01 T00531028  RH  056%=      5-min Rain = 0
KSC1 190724Z 30018G27KT 05/M03 A3006 RMK A01 T00531028  RH  056%=      5-min Rain = 0
KSC1 190725Z 31013G18KT 05/M03 A3006 RMK A01 T00521029  RH  056%=      5-min Rain = 0
KSC1 190726Z 31014G20KT 05/M03 A3006 RMK A01 T00521028  RH  056%=      5-min Rain = 0
KSC1 190727Z 31017G22KT 05/M03 A3006 RMK A01 T00511029  RH  056%=      5-min Rain = 0
KSC1 190728Z 31017KT 05/M03 A3006 RMK A01 T00511029  RH  056%=      5-min Rain = 0
KSC1 190729Z 31013KT 05/M03 A3007 RMK A01 T00511029  RH  056%=      5-min Rain = 0
KSC1 190730Z 31015G22KT 05/M03 A3007 RMK A01 T00511029  RH  056%=      5-min Rain = 0
KSC1 190731Z 31013G18KT 05/M03 A3007 RMK A01 T00501029  RH  057%=      5-min Rain = 0
KSC1 190732Z 31018G24KT 05/M03 A3007 RMK A01 T00501029  RH  057%=      5-min Rain = 0
KSC1 190733Z 31016KT 05/M03 A3007 RMK A01 T00501029  RH  057%=      5-min Rain = 0
KSC1 190734Z 31017G24KT 05/M03 A3007 RMK A01 T00501029  RH  057%=      5-min Rain = 0
KSC1 190735Z 32016KT 05/M03 A3007 RMK A01 T00491029  RH  057%=      5-min Rain = 0
KSC1 190736Z 32013KT 05/M03 A3007 RMK A01 T00491029  RH  057%=      5-min Rain = 0
KSC1 190737Z 32012G17KT 05/M03 A3007 RMK A01 T00491029  RH  057%=      5-min Rain = 0
KSC1 190738Z 32015G20KT 05/M03 A3007 RMK A01 T00481029  RH  057%=      5-min Rain = 0
KSC1 190739Z 31013G18KT 05/M03 A3007 RMK A01 T00481029  RH  058%=      5-min Rain = 0
KSC1 190740Z 31016KT 05/M03 A3007 RMK A01 T00481029  RH  058%=      5-min Rain = 0
KSC1 190741Z 31016KT 05/M03 A3007 RMK A01 T00481029  RH  058%=      5-min Rain = 0
KSC1 190742Z 32011KT 05/M03 A3007 RMK A01 T00481029  RH  058%=      5-min Rain = 0
KSC1 190743Z 31014G20KT 05/M03 A3007 RMK A01 T00481029  RH  058%=      5-min Rain = 0
KSC1 190744Z 31018KT 05/M03 A3007 RMK A01 T00481029  RH  058%=      5-min Rain = 0
KSC1 190745Z 32014KT 05/M03 A3007 RMK A01 T00481028  RH  058%=      5-min Rain = 0
KSC1 190746Z 32014KT 05/M03 A3007 RMK A01 T00481028  RH  058%=      5-min Rain = 0
KSC1 190747Z 32018KT 05/M03 A3007 RMK A01 T00481028  RH  058%=      5-min Rain = 0
KSC1 190748Z 31013KT 05/M03 A3007 RMK A01 T00481028  RH  058%=      5-min Rain = 0
KSC1 190749Z 31014G19KT 05/M03 A3007 RMK A01 T00481028  RH  058%=      5-min Rain = 0
KSC1 190750Z 32018G27KT 05/M03 A3007 RMK A01 T00471028  RH  058%=      5-min Rain = 0
KSC1 190751Z 31015G20KT 05/M03 A3008 RMK A01 T00471029  RH  058%=      5-min Rain = 0
KSC1 190752Z 32018G24KT 05/M03 A3008 RMK A01 T00471029  RH  058%=      5-min Rain = 0
KSC1 190753Z 32016G24KT 05/M03 A3008 RMK A01 T00481029  RH  058%=      5-min Rain = 0
KSC1 190754Z 32016KT 05/M03 A3008 RMK A01 T00481029  RH  058%=      5-min Rain = 0
KSC1 190755Z 32019G27KT 05/M03 A3008 RMK A01 T00481029  RH  057%=      5-min Rain = 0
KSC1 190756Z 33018G27KT 05/M03 A3008 RMK A01 T00481030  RH  057%=      5-min Rain = 0
KSC1 190757Z 33014KT 05/M03 A3008 RMK A01 T00481031  RH  057%=      5-min Rain = 0
KSC1 190758Z 32020G27KT 05/M03 A3008 RMK A01 T00481030  RH  057%=      5-min Rain = 0
KSC1 190759Z 33017KT 05/M03 A3008 RMK A01 T00481031  RH  057%=      5-min Rain = 0
KSC1 190800Z 33015KT 05/M03 A3008 RMK A01 T00481031  RH  057%=      5-min Rain = 0
KSC1 190801Z 33014G21KT 05/M03 A3008 RMK A01 T00481031  RH  057%=      5-min Rain = 0
KSC1 190802Z 33015G20KT 05/M03 A3008 RMK A01 T00471031  RH  057%=      5-min Rain = 0
KSC1 190803Z 33022G27KT 05/M03 A3008 RMK A01 T00471031  RH  057%=      5-min Rain = 0
KSC1 190804Z 33022G28KT 05/M03 A3008 RMK A01 T00461031  RH  057%=      5-min Rain = 0
KSC1 190805Z 33017KT 05/M03 A3008 RMK A01 T00471030  RH  058%=      5-min Rain = 0
KSC1 190806Z 33016KT 05/M03 A3008 RMK A01 T00461030  RH  058%=      5-min Rain = 0
KSC1 190807Z 33017G27KT 05/M03 A3008 RMK A01 T00451030  RH  058%=      5-min Rain = 0
KSC1 190808Z 33018KT 05/M03 A3008 RMK A01 T00451030  RH  058%=      5-min Rain = 0
KSC1 190809Z 32016KT 05/M03 A3008 RMK A01 T00451029  RH  058%=      5-min Rain = 0
KSC1 190810Z 32020KT 05/M03 A3008 RMK A01 T00451029  RH  059%=      5-min Rain = 0
KSC1 190811Z 32014G20KT 05/M03 A3008 RMK A01 T00451029  RH  059%=      5-min Rain = 0
KSC1 190812Z 32014KT 05/M03 A3008 RMK A01 T00451029  RH  059%=      5-min Rain = 0
KSC1 190813Z 33017KT 05/M03 A3008 RMK A01 T00451028  RH  059%=      5-min Rain = 0
KSC1 190814Z 32012KT 04/M03 A3008 RMK A01 T00441028  RH  059%=      5-min Rain = 0
KSC1 190815Z 32013KT 04/M03 A3008 RMK A01 T00441028  RH  059%=      5-min Rain = 0
KSC1 190816Z 32013KT 04/M03 A3008 RMK A01 T00441028  RH  060%=      5-min Rain = 0
KSC1 190817Z 33011KT 04/M03 A3008 RMK A01 T00441028  RH  060%=      5-min Rain = 0
KSC1 190818Z 32013KT 04/M03 A3009 RMK A01 T00441028  RH  060%=      5-min Rain = 0
KSC1 190819Z 33012KT 04/M03 A3009 RMK A01 T00431028  RH  060%=      5-min Rain = 0
KSC1 190820Z 32012G17KT 04/M03 A3009 RMK A01 T00431028  RH  060%=      5-min Rain = 0
KSC1 190821Z 32014KT 04/M03 A3009 RMK A01 T00431028  RH  060%=      5-min Rain = 0
KSC1 190822Z 32015G23KT 04/M03 A3009 RMK A01 T00431028  RH  060%=      5-min Rain = 0
KSC1 190823Z 33018G25KT 04/M03 A3009 RMK A01 T00431028  RH  060%=      5-min Rain = 0
KSC1 190824Z 33014G20KT 04/M03 A3009 RMK A01 T00441028  RH  059%=      5-min Rain = 0
KSC1 190825Z 32011KT 05/M03 A3009 RMK A01 T00451028  RH  059%=      5-min Rain = 0
KSC1 190826Z 32014G20KT 04/M03 A3009 RMK A01 T00441028  RH  059%=      5-min Rain = 0
KSC1 190827Z 32013G21KT 04/M03 A3009 RMK A01 T00441029  RH  059%=      5-min Rain = 0
KSC1 190828Z 32014KT 04/M03 A3009 RMK A01 T00441029  RH  059%=      5-min Rain = 0
KSC1 190829Z 32015G22KT 04/M03 A3009 RMK A01 T00441030  RH  059%=      5-min Rain = 0
KSC1 190830Z 32017G22KT 04/M03 A3009 RMK A01 T00441031  RH  058%=      5-min Rain = 0
KSC1 190831Z 32014G20KT 04/M03 A3009 RMK A01 T00441031  RH  058%=      5-min Rain = 0
KSC1 190832Z 32016KT 04/M03 A301 RMK A01 T00441032  RH  058%=      5-min Rain = 0
KSC1 190833Z 32014G23KT 04/M03 A301 RMK A01 T00441032  RH  058%=      5-min Rain = 0
KSC1 190834Z 32019G32KT 04/M03 A301 RMK A01 T00441032  RH  058%=      5-min Rain = 0
KSC1 190835Z 32024G29KT 04/M03 A301 RMK A01 T00441032  RH  058%=      5-min Rain = 0
KSC1 190836Z 32021KT 04/M03 A301 RMK A01 T00441032  RH  058%=      5-min Rain = 0
KSC1 190837Z 32024G32KT 04/M03 A301 RMK A01 T00441032  RH  058%=      5-min Rain = 0
KSC1 190838Z 33022G29KT 04/M03 A301 RMK A01 T00441032  RH  058%=      5-min Rain = 0
KSC1 190839Z 33023G31KT 04/M03 A301 RMK A01 T00441031  RH  058%=      5-min Rain = 0
KSC1 190840Z 32019G29KT 04/M03 A301 RMK A01 T00441031  RH  058%=      5-min Rain = 0
KSC1 190841Z 32020G28KT 04/M03 A301 RMK A01 T00431031  RH  059%=      5-min Rain = 0
KSC1 190842Z 32020G30KT 04/M03 A301 RMK A01 T00421030  RH  059%=      5-min Rain = 0
KSC1 190843Z 32021G28KT 04/M03 A301 RMK A01 T00411030  RH  060%=      5-min Rain = 0
KSC1 190844Z 33021G28KT 04/M03 A301 RMK A01 T00411030  RH  060%=      5-min Rain = 0
KSC1 190845Z 32024G31KT 04/M03 A301 RMK A01 T00411029  RH  060%=      5-min Rain = 0
KSC1 190846Z 32020G28KT 04/M03 A301 RMK A01 T00411029  RH  060%=      5-min Rain = 0
KSC1 190847Z 32017G23KT 04/M03 A301 RMK A01 T00401029  RH  061%=      5-min Rain = 0
KSC1 190848Z 32018G24KT 04/M03 A301 RMK A01 T00401029  RH  061%=      5-min Rain = 0
KSC1 190849Z 32020G27KT 04/M03 A301 RMK A01 T00391029  RH  061%=      5-min Rain = 0
KSC1 190850Z 32016KT 04/M03 A301 RMK A01 T00391029  RH  061%=      5-min Rain = 0
KSC1 190851Z 33017G22KT 04/M03 A301 RMK A01 T00391030  RH  061%=      5-min Rain = 0
KSC1 190852Z 33026G35KT 04/M03 A301 RMK A01 T00391030  RH  061%=      5-min Rain = 0
KSC1 190853Z 32026G32KT 04/M03 A301 RMK A01 T00391030  RH  061%=      5-min Rain = 0
KSC1 190854Z 32020G27KT 04/M03 A301 RMK A01 T00391030  RH  060%=      5-min Rain = 0
KSC1 190855Z 32019G24KT 04/M03 A3011 RMK A01 T00401030  RH  060%=      5-min Rain = 0
KSC1 190856Z 32023G30KT 04/M03 A3011 RMK A01 T00401030  RH  060%=      5-min Rain = 0
KSC1 190857Z 32021G29KT 04/M03 A3011 RMK A01 T00391030  RH  060%=      5-min Rain = 0
KSC1 190858Z 33019KT 04/M03 A3011 RMK A01 T00401030  RH  060%=      5-min Rain = 0
KSC1 190859Z 32022G27KT 04/M03 A3011 RMK A01 T00401030  RH  061%=      5-min Rain = 0
KSC1 190900Z 32019G25KT 04/M03 A3011 RMK A01 T00391030  RH  061%=      5-min Rain = 0
KSC1 190901Z 32022G31KT 04/M03 A3011 RMK A01 T00391030  RH  061%=      5-min Rain = 0
KSC1 190902Z 32022G28KT 04/M03 A3011 RMK A01 T00391029  RH  061%=      5-min Rain = 0
KSC1 190903Z 32018KT 04/M03 A3011 RMK A01 T00391029  RH  061%=      5-min Rain = 0
KSC1 190904Z 32014G22KT 04/M03 A3012 RMK A01 T00391029  RH  061%=      5-min Rain = 0
KSC1 190905Z 32017G25KT 04/M03 A3012 RMK A01 T00381029  RH  061%=      5-min Rain = 0
KSC1 190906Z 32022G27KT 04/M03 A3012 RMK A01 T00381029  RH  062%=      5-min Rain = 0
KSC1 190907Z 32018G26KT 04/M03 A3012 RMK A01 T00381029  RH  061%=      5-min Rain = 0
KSC1 190908Z 32019G27KT 04/M03 A3012 RMK A01 T00381030  RH  061%=      5-min Rain = 0
KSC1 190909Z 32018G25KT 04/M03 A3012 RMK A01 T00381030  RH  061%=      5-min Rain = 0
KSC1 190910Z 32021G27KT 04/M03 A3012 RMK A01 T00381030  RH  061%=      5-min Rain = 0
KSC1 190911Z 32020G26KT 04/M03 A3012 RMK A01 T00381030  RH  061%=      5-min Rain = 0
KSC1 190912Z 32017G25KT 04/M03 A3012 RMK A01 T00381030  RH  061%=      5-min Rain = 0
KSC1 190913Z 32017G23KT 04/M03 A3012 RMK A01 T00371030  RH  061%=      5-min Rain = 0
KSC1 190914Z 32017G23KT 04/M03 A3012 RMK A01 T00371030  RH  061%=      5-min Rain = 0
KSC1 190915Z 32018KT 04/M03 A3013 RMK A01 T00371030  RH  061%=      5-min Rain = 0
KSC1 190916Z 32020G26KT 04/M03 A3012 RMK A01 T00371031  RH  062%=      5-min Rain = 0
KSC1 190917Z 33017KT 04/M03 A3013 RMK A01 T00371031  RH  061%=      5-min Rain = 0
KSC1 190918Z 32018KT 04/M03 A3013 RMK A01 T00371031  RH  061%=      5-min Rain = 0
KSC1 190919Z 32019G25KT 04/M03 A3013 RMK A01 T00371031  RH  061%=      5-min Rain = 0
KSC1 190920Z 33019G27KT 04/M03 A3013 RMK A01 T00371030  RH  061%=      5-min Rain = 0
KSC1 190921Z 32016G22KT 04/M03 A3013 RMK A01 T00361030  RH  062%=      5-min Rain = 0
KSC1 190922Z 33015G20KT 04/M03 A3013 RMK A01 T00361030  RH  062%=      5-min Rain = 0
KSC1 190923Z 33016G21KT 04/M03 A3013 RMK A01 T00361030  RH  062%=      5-min Rain = 0
KSC1 190924Z 32016KT 04/M03 A3013 RMK A01 T00361030  RH  062%=      5-min Rain = 0
KSC1 190925Z 32014G20KT 04/M03 A3013 RMK A01 T00361029  RH  062%=      5-min Rain = 0
KSC1 190926Z 32018G23KT 04/M03 A3013 RMK A01 T00351029  RH  063%=      5-min Rain = 0
KSC1 190927Z 32019G24KT 04/M03 A3013 RMK A01 T00351029  RH  063%=      5-min Rain = 0
KSC1 190928Z 32017G24KT 04/M03 A3014 RMK A01 T00361029  RH  063%=      5-min Rain = 0
KSC1 190929Z 32019G25KT 04/M03 A3014 RMK A01 T00361028  RH  063%=      5-min Rain = 0
KSC1 190930Z 32016G21KT 04/M03 A3014 RMK A01 T00361028  RH  063%=      5-min Rain = 0
KSC1 190931Z 32013KT 04/M03 A3014 RMK A01 T00361028  RH  063%=      5-min Rain = 0
KSC1 190932Z 33019G24KT 04/M03 A3014 RMK A01 T00361027  RH  063%=      5-min Rain = 0
KSC1 190933Z 33018KT 04/M03 A3014 RMK A01 T00361027  RH  064%=      5-min Rain = 0
KSC1 190934Z 32016G21KT 04/M03 A3014 RMK A01 T00361026  RH  064%=      5-min Rain = 0
KSC1 190935Z 32014G20KT 04/M03 A3014 RMK A01 T00361026  RH  064%=      5-min Rain = 0
KSC1 190936Z 32014G19KT 04/M03 A3014 RMK A01 T00351026  RH  064%=      5-min Rain = 0
KSC1 190937Z 32013KT 04/M03 A3014 RMK A01 T00351025  RH  065%=      5-min Rain = 0
KSC1 190938Z 32015KT 04/M03 A3014 RMK A01 T00351025  RH  065%=      5-min Rain = 0
KSC1 190939Z 32012G18KT 04/M03 A3014 RMK A01 T00351025  RH  065%=      5-min Rain = 0
KSC1 190940Z 31012G17KT 03/M03 A3014 RMK A01 T00341025  RH  065%=      5-min Rain = 0
KSC1 190941Z 31012KT 03/M03 A3014 RMK A01 T00341025  RH  065%=      5-min Rain = 0
KSC1 190942Z 31013G18KT 03/M03 A3014 RMK A01 T00341025  RH  066%=      5-min Rain = 0
KSC1 190943Z 31013G18KT 03/M03 A3014 RMK A01 T00341025  RH  066%=      5-min Rain = 0
KSC1 190944Z 31016G21KT 03/M03 A3014 RMK A01 T00331025  RH  066%=      5-min Rain = 0
KSC1 190945Z 32017KT 03/M02 A3014 RMK A01 T00341024  RH  066%=      5-min Rain = 0
KSC1 190946Z 31015KT 03/M02 A3014 RMK A01 T00341024  RH  066%=      5-min Rain = 0
KSC1 190947Z 31014KT 03/M02 A3014 RMK A01 T00341024  RH  066%=      5-min Rain = 0
KSC1 190948Z 31011G16KT 03/M02 A3014 RMK A01 T00341024  RH  066%=      5-min Rain = 0
KSC1 190949Z 32011KT 03/M02 A3014 RMK A01 T00341023  RH  066%=      5-min Rain = 0
KSC1 190950Z 31011G16KT 03/M02 A3014 RMK A01 T00341023  RH  066%=      5-min Rain = 0
KSC1 190951Z 32010KT 03/M02 A3014 RMK A01 T00331023  RH  067%=      5-min Rain = 0
KSC1 190952Z 32012G18KT 03/M02 A3014 RMK A01 T00331023  RH  067%=      5-min Rain = 0
KSC1 190953Z 31012G17KT 03/M02 A3014 RMK A01 T00331022  RH  067%=      5-min Rain = 0
KSC1 190954Z 31015KT 03/M02 A3014 RMK A01 T00331022  RH  067%=      5-min Rain = 0
KSC1 190955Z 31013KT 03/M02 A3014 RMK A01 T00341022  RH  067%=      5-min Rain = 0
KSC1 190956Z 31012KT 03/M02 A3014 RMK A01 T00341022  RH  067%=      5-min Rain = 0
KSC1 190957Z 31012KT 03/M02 A3014 RMK A01 T00341022  RH  067%=      5-min Rain = 0
KSC1 190958Z 31015KT 03/M02 A3014 RMK A01 T00341021  RH  067%=      5-min Rain = 0
KSC1 190959Z 32014KT 03/M02 A3014 RMK A01 T00341021  RH  067%=      5-min Rain = 0
KSC1 191000Z 31013G18KT 03/M02 A3014 RMK A01 T00341021  RH  067%=      5-min Rain = 0
KSC1 191001Z 31014G20KT 04/M02 A3014 RMK A01 T00351020  RH  067%=      5-min Rain = 0
KSC1 191002Z 31015KT 04/M02 A3014 RMK A01 T00351020  RH  067%=      5-min Rain = 0
KSC1 191003Z 31015KT 04/M02 A3014 RMK A01 T00351020  RH  067%=      5-min Rain = 0
KSC1 191004Z 31016KT 04/M02 A3014 RMK A01 T00351020  RH  067%=      5-min Rain = 0
KSC1 191005Z 31013G20KT 04/M02 A3014 RMK A01 T00361020  RH  067%=      5-min Rain = 0
KSC1 191006Z 31014KT 04/M02 A3015 RMK A01 T00361019  RH  067%=      5-min Rain = 0
KSC1 191007Z 31013G19KT 04/M02 A3015 RMK A01 T00361019  RH  067%=      5-min Rain = 0
KSC1 191008Z 31013KT 04/M02 A3015 RMK A01 T00361019  RH  067%=      5-min Rain = 0
KSC1 191009Z 31011G16KT 04/M02 A3015 RMK A01 T00361019  RH  067%=      5-min Rain = 0
KSC1 191010Z 30011G16KT 04/M02 A3014 RMK A01 T00361019  RH  068%=      5-min Rain = 0
KSC1 191011Z 31013KT 04/M02 A3014 RMK A01 T00361019  RH  068%=      5-min Rain = 0
KSC1 191012Z 31016KT 04/M02 A3014 RMK A01 T00351019  RH  068%=      5-min Rain = 0
KSC1 191013Z 31014G19KT 04/M02 A3014 RMK A01 T00361019  RH  067%=      5-min Rain = 0
KSC1 191014Z 30015KT 04/M02 A3014 RMK A01 T00361019  RH  067%=      5-min Rain = 0
KSC1 191015Z 31014G19KT 04/M02 A3014 RMK A01 T00371019  RH  067%=      5-min Rain = 0
KSC1 191016Z 31012G17KT 04/M02 A3014 RMK A01 T00371019  RH  067%=      5-min Rain = 0
KSC1 191017Z 31013G18KT 04/M02 A3015 RMK A01 T00371019  RH  067%=      5-min Rain = 0
KSC1 191018Z 31012G17KT 04/M02 A3015 RMK A01 T00361019  RH  067%=      5-min Rain = 0
KSC1 191019Z 31012G17KT 04/M02 A3015 RMK A01 T00361019  RH  067%=      5-min Rain = 0
KSC1 191020Z 31010KT 04/M02 A3015 RMK A01 T00361019  RH  067%=      5-min Rain = 0
KSC1 191021Z 31012KT 04/M02 A3015 RMK A01 T00351019  RH  067%=      5-min Rain = 0
KSC1 191022Z 31010KT 04/M02 A3015 RMK A01 T00351019  RH  067%=      5-min Rain = 0
KSC1 191023Z 31015KT 04/M02 A3015 RMK A01 T00351019  RH  068%=      5-min Rain = 0
KSC1 191024Z 31010KT 04/M02 A3015 RMK A01 T00351020  RH  067%=      5-min Rain = 0
KSC1 191025Z 31009G15KT 04/M02 A3015 RMK A01 T00351020  RH  067%=      5-min Rain = 0
KSC1 191026Z 30010KT 04/M02 A3015 RMK A01 T00351019  RH  068%=      5-min Rain = 0
KSC1 191027Z 31013KT 04/M02 A3015 RMK A01 T00351019  RH  068%=      5-min Rain = 0
KSC1 191028Z 31013KT 04/M02 A3015 RMK A01 T00351019  RH  068%=      5-min Rain = 0
KSC1 191029Z 31012G17KT 04/M02 A3015 RMK A01 T00351020  RH  067%=      5-min Rain = 0
KSC1 191030Z 30015KT 04/M02 A3015 RMK A01 T00351020  RH  067%=      5-min Rain = 0
KSC1 191031Z 30010G15KT 04/M02 A3015 RMK A01 T00361020  RH  067%=      5-min Rain = 0
KSC1 191032Z 30011KT 04/M02 A3015 RMK A01 T00361020  RH  067%=      5-min Rain = 0
KSC1 191033Z 30009KT 04/M02 A3016 RMK A01 T00361020  RH  067%=      5-min Rain = 0
KSC1 191034Z 31016G21KT 04/M02 A3015 RMK A01 T00351021  RH  067%=      5-min Rain = 0
KSC1 191035Z 30015KT 04/M02 A3015 RMK A01 T00361022  RH  066%=      5-min Rain = 0
KSC1 191036Z 31018KT 04/M02 A3015 RMK A01 T00371022  RH  065%=      5-min Rain = 0
KSC1 191037Z 30019KT 04/M02 A3016 RMK A01 T00371024  RH  064%=      5-min Rain = 0
KSC1 191038Z 31016KT 04/M03 A3016 RMK A01 T00371025  RH  064%=      5-min Rain = 0
KSC1 191039Z 31013G20KT 04/M03 A3016 RMK A01 T00371027  RH  063%=      5-min Rain = 0
KSC1 191040Z 31017G26KT 04/M03 A3015 RMK A01 T00371027  RH  063%=      5-min Rain = 0
KSC1 191041Z 31018KT 04/M03 A3015 RMK A01 T00371028  RH  063%=      5-min Rain = 0
KSC1 191042Z 31016G25KT 04/M03 A3016 RMK A01 T00371028  RH  062%=      5-min Rain = 0
KSC1 191043Z 32015KT 04/M03 A3016 RMK A01 T00371028  RH  062%=      5-min Rain = 0
KSC1 191044Z 31015G20KT 04/M03 A3016 RMK A01 T00371029  RH  062%=      5-min Rain = 0
KSC1 191045Z 31015KT 04/M03 A3016 RMK A01 T00361029  RH  062%=      5-min Rain = 0
KSC1 191046Z 31013KT 04/M03 A3016 RMK A01 T00361029  RH  062%=      5-min Rain = 0
KSC1 191047Z 31015G21KT 04/M03 A3016 RMK A01 T00361029  RH  062%=      5-min Rain = 0
KSC1 191048Z 31016KT 04/M03 A3016 RMK A01 T00361029  RH  062%=      5-min Rain = 0
KSC1 191049Z 31013G19KT 04/M03 A3016 RMK A01 T00361030  RH  062%=      5-min Rain = 0
KSC1 191050Z 30009KT 04/M03 A3016 RMK A01 T00351030  RH  062%=      5-min Rain = 0
KSC1 191051Z 31012KT 04/M03 A3016 RMK A01 T00351030  RH  063%=      5-min Rain = 0
KSC1 191052Z 31012G17KT 04/M03 A3016 RMK A01 T00351030  RH  063%=      5-min Rain = 0
KSC1 191053Z 31010KT 03/M03 A3016 RMK A01 T00341030  RH  063%=      5-min Rain = 0
KSC1 191054Z 31010KT 03/M03 A3016 RMK A01 T00341030  RH  063%=      5-min Rain = 0
KSC1 191055Z 31012KT 03/M03 A3016 RMK A01 T00341030  RH  063%=      5-min Rain = 0
KSC1 191056Z 31014G19KT 03/M03 A3016 RMK A01 T00341030  RH  063%=      5-min Rain = 0
KSC1 191057Z 31010KT 03/M03 A3016 RMK A01 T00341030  RH  063%=      5-min Rain = 0
KSC1 191058Z 31011KT 03/M03 A3017 RMK A01 T00341030  RH  063%=      5-min Rain = 0
KSC1 191059Z 31011KT 03/M03 A3016 RMK A01 T00341030  RH  063%=      5-min Rain = 0
KSC1 191100Z 30009KT 03/M03 A3017 RMK A01 T00341030  RH  063%=      5-min Rain = 0
KSC1 191101Z 30011KT 03/M03 A3017 RMK A01 T00331030  RH  063%=      5-min Rain = 0
KSC1 191102Z 30011KT 03/M03 A3017 RMK A01 T00331029  RH  064%=      5-min Rain = 0
KSC1 191103Z 30010KT 03/M03 A3017 RMK A01 T00321029  RH  064%=      5-min Rain = 0
KSC1 191104Z 30010G16KT 03/M03 A3017 RMK A01 T00331029  RH  064%=      5-min Rain = 0
KSC1 191105Z 31014G20KT 03/M03 A3017 RMK A01 T00331029  RH  064%=      5-min Rain = 0
KSC1 191106Z 31015KT 03/M03 A3017 RMK A01 T00331030  RH  064%=      5-min Rain = 0
KSC1 191107Z 31015KT 03/M03 A3016 RMK A01 T00331029  RH  063%=      5-min Rain = 0
KSC1 191108Z 30013G18KT 03/M03 A3016 RMK A01 T00341029  RH  063%=      5-min Rain = 0
KSC1 191109Z 30014KT 03/M03 A3017 RMK A01 T00341029  RH  063%=      5-min Rain = 0
KSC1 191110Z 31016G22KT 03/M03 A3017 RMK A01 T00341030  RH  063%=      5-min Rain = 0
KSC1 191111Z 31016KT 03/M03 A3017 RMK A01 T00341030  RH  063%=      5-min Rain = 0
KSC1 191112Z 31013KT 04/M03 A3017 RMK A01 T00351030  RH  063%=      5-min Rain = 0
KSC1 191113Z 31014KT 03/M03 A3017 RMK A01 T00341031  RH  062%=      5-min Rain = 0
KSC1 191114Z 30013KT 04/M03 A3017 RMK A01 T00351030  RH  062%=      5-min Rain = 0
KSC1 191115Z 30013G19KT 04/M03 A3017 RMK A01 T00351030  RH  062%=      5-min Rain = 0
KSC1 191116Z 30013G20KT 03/M03 A3017 RMK A01 T00341030  RH  063%=      5-min Rain = 0
KSC1 191117Z 30014G19KT 03/M03 A3017 RMK A01 T00341031  RH  063%=      5-min Rain = 0
KSC1 191118Z 30012KT 03/M03 A3017 RMK A01 T00341031  RH  063%=      5-min Rain = 0
KSC1 191119Z 31011G20KT 03/M03 A3017 RMK A01 T00331031  RH  063%=      5-min Rain = 0
KSC1 191120Z 30015G20KT 03/M03 A3017 RMK A01 T00331031  RH  063%=      5-min Rain = 0
KSC1 191121Z 31014KT 03/M03 A3017 RMK A01 T00331031  RH  063%=      5-min Rain = 0
KSC1 191122Z 30017KT 03/M03 A3017 RMK A01 T00331032  RH  062%=      5-min Rain = 0
KSC1 191123Z 31012KT 03/M03 A3017 RMK A01 T00331032  RH  062%=      5-min Rain = 0
KSC1 191124Z 31012KT 03/M03 A3017 RMK A01 T00331032  RH  062%=      5-min Rain = 0
KSC1 191125Z 31016G21KT 03/M03 A3017 RMK A01 T00331032  RH  062%=      5-min Rain = 0
KSC1 191126Z 31014G20KT 03/M03 A3017 RMK A01 T00331032  RH  062%=      5-min Rain = 0
KSC1 191127Z 31014G19KT 03/M03 A3017 RMK A01 T00331033  RH  062%=      5-min Rain = 0
KSC1 191128Z 31017KT 03/M03 A3017 RMK A01 T00331033  RH  062%=      5-min Rain = 0
KSC1 191129Z 31014G20KT 03/M03 A3017 RMK A01 T00331034  RH  062%=      5-min Rain = 0
KSC1 191130Z 32017KT 03/M04 A3017 RMK A01 T00331035  RH  061%=      5-min Rain = 0
KSC1 191131Z 31018G24KT 03/M04 A3017 RMK A01 T00331035  RH  061%=      5-min Rain = 0
KSC1 191132Z 32017G24KT 03/M04 A3017 RMK A01 T00331035  RH  061%=      5-min Rain = 0
KSC1 191133Z 31019G27KT 03/M04 A3017 RMK A01 T00331035  RH  061%=      5-min Rain = 0
KSC1 191134Z 32018G23KT 03/M04 A3017 RMK A01 T00331036  RH  060%=      5-min Rain = 0
KSC1 191135Z 31011KT 03/M04 A3017 RMK A01 T00331037  RH  060%=      5-min Rain = 0
KSC1 191136Z 31015G20KT 03/M04 A3017 RMK A01 T00331037  RH  060%=      5-min Rain = 0
KSC1 191137Z 31016G21KT 03/M04 A3017 RMK A01 T00321037  RH  061%=      5-min Rain = 0
KSC1 191138Z 32017G23KT 03/M04 A3017 RMK A01 T00321037  RH  061%=      5-min Rain = 0
KSC1 191139Z 32013KT 03/M04 A3017 RMK A01 T00321037  RH  060%=      5-min Rain = 0
KSC1 191140Z 31014KT 03/M04 A3017 RMK A01 T00321037  RH  060%=      5-min Rain = 0
KSC1 191141Z 31013KT 03/M04 A3017 RMK A01 T00321037  RH  060%=      5-min Rain = 0
KSC1 191142Z 32015G20KT 03/M04 A3018 RMK A01 T00311037  RH  061%=      5-min Rain = 0
KSC1 191143Z 31012G17KT 03/M04 A3018 RMK A01 T00311037  RH  061%=      5-min Rain = 0
KSC1 191144Z 31014G20KT 03/M04 A3018 RMK A01 T00311037  RH  061%=      5-min Rain = 0
KSC1 191145Z 32017G22KT 03/M04 A3018 RMK A01 T00311037  RH  061%=      5-min Rain = 0
KSC1 191146Z 31012G17KT 03/M04 A3018 RMK A01 T00311038  RH  061%=      5-min Rain = 0
KSC1 191147Z 32012KT 03/M04 A3018 RMK A01 T00311038  RH  061%=      5-min Rain = 0
KSC1 191148Z 31011KT 03/M04 A3018 RMK A01 T00311038  RH  061%=      5-min Rain = 0
KSC1 191149Z 32013KT 03/M04 A3018 RMK A01 T00301038  RH  061%=      5-min Rain = 0
KSC1 191150Z 32013G18KT 03/M04 A3018 RMK A01 T00301039  RH  061%=      5-min Rain = 0
KSC1 191151Z 32016G22KT 03/M04 A3018 RMK A01 T00301039  RH  061%=      5-min Rain = 0
KSC1 191152Z 33013KT 03/M04 A3019 RMK A01 T00301039  RH  060%=      5-min Rain = 0
KSC1 191153Z 32013KT 03/M04 A3019 RMK A01 T00301040  RH  060%=      5-min Rain = 0
KSC1 191154Z 32015KT 03/M04 A3019 RMK A01 T00301040  RH  060%=      5-min Rain = 0
KSC1 191155Z 32017G23KT 03/M04 A3019 RMK A01 T00301041  RH  060%=      5-min Rain = 0
KSC1 191156Z 33018KT 03/M04 A3019 RMK A01 T00301041  RH  059%=      5-min Rain = 0
KSC1 191157Z 33013KT 03/M04 A3019 RMK A01 T00311042  RH  059%=      5-min Rain = 0
KSC1 191158Z 33012KT 03/M04 A3019 RMK A01 T00311042  RH  059%=      5-min Rain = 0
KSC1 191159Z 33011KT 03/M04 A3019 RMK A01 T00301042  RH  059%=      5-min Rain = 0
KSC1 191200Z 33013G18KT 03/M04 A3019 RMK A01 T00291042  RH  059%=      5-min Rain = 0
KSC1 191201Z 32012G17KT 03/M04 A3019 RMK A01 T00291042  RH  060%=      5-min Rain = 0
KSC1 191202Z 32018KT 03/M04 A3019 RMK A01 T00291042  RH  060%=      5-min Rain = 0
KSC1 191203Z 32013G18KT 03/M04 A3019 RMK A01 T00291042  RH  059%=      5-min Rain = 0
KSC1 191204Z 33013G21KT 03/M04 A3019 RMK A01 T00301042  RH  059%=      5-min Rain = 0
KSC1 191205Z 32011KT 03/M04 A3019 RMK A01 T00291043  RH  059%=      5-min Rain = 0
KSC1 191206Z 32012G21KT 03/M04 A302 RMK A01 T00291043  RH  059%=      5-min Rain = 0
KSC1 191207Z 33015KT 03/M04 A302 RMK A01 T00291043  RH  059%=      5-min Rain = 0
KSC1 191208Z 33015KT 03/M04 A302 RMK A01 T00281043  RH  059%=      5-min Rain = 0
KSC1 191209Z 32015G20KT 03/M04 A302 RMK A01 T00291043  RH  059%=      5-min Rain = 0
KSC1 191210Z 32014G19KT 03/M04 A302 RMK A01 T00291044  RH  059%=      5-min Rain = 0
KSC1 191211Z 32013KT 03/M04 A302 RMK A01 T00291044  RH  059%=      5-min Rain = 0
KSC1 191212Z 32010KT 03/M04 A302 RMK A01 T00291044  RH  059%=      5-min Rain = 0
KSC1 191213Z 32012KT 03/M04 A302 RMK A01 T00291044  RH  059%=      5-min Rain = 0
KSC1 191214Z 32013KT 03/M04 A302 RMK A01 T00291044  RH  059%=      5-min Rain = 0
KSC1 191215Z 32014G20KT 03/M04 A302 RMK A01 T00291044  RH  059%=      5-min Rain = 0
KSC1 191216Z 32012KT 03/M04 A302 RMK A01 T00291044  RH  058%=      5-min Rain = 0
KSC1 191217Z 33016KT 03/M05 A302 RMK A01 T00281045  RH  059%=      5-min Rain = 0
KSC1 191218Z 33013G19KT 03/M05 A302 RMK A01 T00291045  RH  058%=      5-min Rain = 0
KSC1 191219Z 33013G18KT 03/M05 A302 RMK A01 T00291045  RH  058%=      5-min Rain = 0
KSC1 191220Z 32016KT 03/M05 A302 RMK A01 T00291045  RH  058%=      5-min Rain = 0
KSC1 191221Z 32012KT 03/M05 A302 RMK A01 T00291045  RH  058%=      5-min Rain = 0
KSC1 191222Z 32014KT 03/M05 A302 RMK A01 T00291045  RH  058%=      5-min Rain = 0
KSC1 191223Z 33013KT 03/M05 A3021 RMK A01 T00291045  RH  058%=      5-min Rain = 0
KSC1 191224Z 32010G16KT 03/M05 A3021 RMK A01 T00291045  RH  058%=      5-min Rain = 0
KSC1 191225Z 32012KT 03/M05 A3021 RMK A01 T00281045  RH  058%=      5-min Rain = 0
KSC1 191226Z 32012KT 03/M05 A3021 RMK A01 T00281045  RH  058%=      5-min Rain = 0
KSC1 191227Z 32011KT 03/M05 A3021 RMK A01 T00281045  RH  058%=      5-min Rain = 0
KSC1 191228Z 31009KT 03/M05 A3021 RMK A01 T00281045  RH  059%=      5-min Rain = 0
KSC1 191229Z 31009KT 03/M05 A3021 RMK A01 T00271045  RH  059%=      5-min Rain = 0
KSC1 191230Z 31009KT 03/M05 A3021 RMK A01 T00271045  RH  059%=      5-min Rain = 0
KSC1 191231Z 30012G18KT 03/M05 A3021 RMK A01 T00271045  RH  059%=      5-min Rain = 0
KSC1 191232Z 30010KT 03/M05 A3021 RMK A01 T00271045  RH  059%=      5-min Rain = 0
KSC1 191233Z 31011KT 03/M05 A3021 RMK A01 T00271045  RH  059%=      5-min Rain = 0
KSC1 191234Z 31010KT 03/M05 A3022 RMK A01 T00271045  RH  059%=      5-min Rain = 0
KSC1 191235Z 31008KT 03/M05 A3022 RMK A01 T00271045  RH  059%=      5-min Rain = 0
KSC1 191236Z 30009KT 03/M05 A3022 RMK A01 T00261045  RH  059%=      5-min Rain = 0
KSC1 191237Z 30008KT 03/M05 A3022 RMK A01 T00261045  RH  060%=      5-min Rain = 0
KSC1 191238Z 31007KT 03/M04 A3022 RMK A01 T00251044  RH  060%=      5-min Rain = 0
KSC1 191239Z 30010G15KT 03/M04 A3022 RMK A01 T00251044  RH  060%=      5-min Rain = 0
KSC1 191240Z 30008KT 03/M04 A3022 RMK A01 T00251044  RH  061%=      5-min Rain = 0
KSC1 191241Z 31011KT 03/M04 A3022 RMK A01 T00251043  RH  061%=      5-min Rain = 0
KSC1 191242Z 31009KT 02/M04 A3022 RMK A01 T00241043  RH  061%=      5-min Rain = 0
KSC1 191243Z 30009KT 03/M04 A3022 RMK A01 T00251042  RH  061%=      5-min Rain = 0
KSC1 191244Z 30008KT 03/M04 A3022 RMK A01 T00251042  RH  061%=      5-min Rain = 0
KSC1 191245Z 31013G19KT 03/M04 A3022 RMK A01 T00251041  RH  062%=      5-min Rain = 0
KSC1 191246Z 31011KT 03/M04 A3022 RMK A01 T00261041  RH  062%=      5-min Rain = 0
KSC1 191247Z 31009KT 03/M04 A3022 RMK A01 T00261041  RH  062%=      5-min Rain = 0
KSC1 191248Z 32010G15KT 03/M04 A3022 RMK A01 T00261040  RH  062%=      5-min Rain = 0
KSC1 191249Z 31013KT 03/M04 A3022 RMK A01 T00251040  RH  062%=      5-min Rain = 0
KSC1 191250Z 31011KT 03/M04 A3022 RMK A01 T00251040  RH  062%=      5-min Rain = 0
KSC1 191251Z 32012KT 03/M04 A3022 RMK A01 T00251040  RH  062%=      5-min Rain = 0
KSC1 191252Z 32012G17KT 03/M04 A3022 RMK A01 T00251041  RH  062%=      5-min Rain = 0
KSC1 191253Z 32014KT 03/M04 A3022 RMK A01 T00251041  RH  062%=      5-min Rain = 0
KSC1 191254Z 33013KT 03/M04 A3022 RMK A01 T00251041  RH  062%=      5-min Rain = 0
KSC1 191255Z 32014KT 03/M04 A3023 RMK A01 T00251041  RH  062%=      5-min Rain = 0
KSC1 191256Z 32010G15KT 03/M04 A3023 RMK A01 T00251041  RH  061%=      5-min Rain = 0
KSC1 191257Z 32012G17KT 03/M04 A3023 RMK A01 T00251042  RH  062%=      5-min Rain = 0
KSC1 191258Z 32016KT 02/M04 A3023 RMK A01 T00241042  RH  062%=      5-min Rain = 0
KSC1 191259Z 33013G19KT 03/M04 A3023 RMK A01 T00251042  RH  061%=      5-min Rain = 0
KSC1 191300Z 32011G16KT 03/M04 A3023 RMK A01 T00251043  RH  061%=      5-min Rain = 0
KSC1 191301Z 33013G20KT 03/M04 A3023 RMK A01 T00251043  RH  061%=      5-min Rain = 0
KSC1 191302Z 33013KT 02/M04 A3023 RMK A01 T00241043  RH  061%=      5-min Rain = 0
KSC1 191303Z 33010KT 03/M04 A3023 RMK A01 T00251043  RH  061%=      5-min Rain = 0
KSC1 191304Z 32013G18KT 02/M04 A3023 RMK A01 T00241043  RH  061%=      5-min Rain = 0
KSC1 191305Z 32012KT 02/M04 A3024 RMK A01 T00241043  RH  061%=      5-min Rain = 0
KSC1 191306Z 33013KT 02/M04 A3024 RMK A01 T00241043  RH  061%=      5-min Rain = 0
KSC1 191307Z 31012KT 02/M04 A3024 RMK A01 T00241043  RH  061%=      5-min Rain = 0
KSC1 191308Z 32013KT 02/M04 A3024 RMK A01 T00231044  RH  061%=      5-min Rain = 0
KSC1 191309Z 33014KT 02/M04 A3024 RMK A01 T00231044  RH  061%=      5-min Rain = 0
KSC1 191310Z 32013KT 02/M05 A3024 RMK A01 T00231045  RH  061%=      5-min Rain = 0
KSC1 191311Z 32011KT 02/M05 A3024 RMK A01 T00231045  RH  061%=      5-min Rain = 0
KSC1 191312Z 32009KT 02/M05 A3024 RMK A01 T00231045  RH  061%=      5-min Rain = 0
KSC1 191313Z 32013G18KT 02/M05 A3024 RMK A01 T00221045  RH  061%=      5-min Rain = 0
KSC1 191314Z 32014KT 02/M05 A3024 RMK A01 T00221045  RH  061%=      5-min Rain = 0
KSC1 191315Z 32013KT 02/M05 A3024 RMK A01 T00221045  RH  061%=      5-min Rain = 0
KSC1 191316Z 33016KT 02/M05 A3024 RMK A01 T00221045  RH  061%=      5-min Rain = 0
KSC1 191317Z 32012KT 02/M05 A3024 RMK A01 T00231045  RH  061%=      5-min Rain = 0
KSC1 191318Z 32012KT 02/M05 A3024 RMK A01 T00231045  RH  061%=      5-min Rain = 0
KSC1 191319Z 32012G17KT 02/M05 A3025 RMK A01 T00231045  RH  061%=      5-min Rain = 0
KSC1 191320Z 32014KT 02/M05 A3025 RMK A01 T00221045  RH  061%=      5-min Rain = 0
KSC1 191321Z 32011KT 02/M05 A3025 RMK A01 T00221046  RH  061%=      5-min Rain = 0
KSC1 191322Z 32009KT 02/M05 A3025 RMK A01 T00221046  RH  061%=      5-min Rain = 0
KSC1 191323Z 32014G20KT 02/M05 A3025 RMK A01 T00211046  RH  061%=      5-min Rain = 0
KSC1 191324Z 32014KT 02/M05 A3025 RMK A01 T00211046  RH  061%=      5-min Rain = 0
KSC1 191325Z 32009KT 02/M05 A3025 RMK A01 T00221046  RH  061%=      5-min Rain = 0
KSC1 191326Z 32009KT 02/M05 A3025 RMK A01 T00221046  RH  061%=      5-min Rain = 0
KSC1 191327Z 31010KT 02/M05 A3026 RMK A01 T00211046  RH  061%=      5-min Rain = 0
KSC1 191328Z 31010KT 02/M05 A3026 RMK A01 T00201046  RH  062%=      5-min Rain = 0
KSC1 191329Z 31009KT 02/M05 A3026 RMK A01 T00201046  RH  062%=      5-min Rain = 0
KSC1 191330Z 31011KT 02/M05 A3026 RMK A01 T00201046  RH  062%=      5-min Rain = 0
KSC1 191331Z 32010KT 02/M05 A3026 RMK A01 T00201046  RH  061%=      5-min Rain = 0
KSC1 191332Z 32009KT 02/M05 A3026 RMK A01 T00201046  RH  062%=      5-min Rain = 0
KSC1 191333Z 32010KT 02/M05 A3026 RMK A01 T00201046  RH  062%=      5-min Rain = 0
KSC1 191334Z 32011G17KT 02/M05 A3026 RMK A01 T00191046  RH  062%=      5-min Rain = 0
KSC1 191335Z 32011KT 02/M05 A3026 RMK A01 T00191047  RH  062%=      5-min Rain = 0
KSC1 191336Z 32011KT 02/M05 A3027 RMK A01 T00191047  RH  062%=      5-min Rain = 0
KSC1 191337Z 33010KT 02/M05 A3027 RMK A01 T00191047  RH  062%=      5-min Rain = 0
KSC1 191338Z 32012G18KT 02/M05 A3027 RMK A01 T00191047  RH  062%=      5-min Rain = 0
KSC1 191339Z 32010KT 02/M05 A3027 RMK A01 T00191047  RH  061%=      5-min Rain = 0
KSC1 191340Z 31010KT 02/M05 A3027 RMK A01 T00191047  RH  061%=      5-min Rain = 0
KSC1 191341Z 32016G21KT 02/M05 A3027 RMK A01 T00191047  RH  061%=      5-min Rain = 0
KSC1 191342Z 33011KT 02/M05 A3027 RMK A01 T00191048  RH  061%=      5-min Rain = 0
KSC1 191343Z 32011G16KT 02/M05 A3027 RMK A01 T00201048  RH  061%=      5-min Rain = 0
KSC1 191344Z 32012G17KT 02/M05 A3027 RMK A01 T00201048  RH  061%=      5-min Rain = 0
KSC1 191345Z 32013G18KT 02/M05 A3027 RMK A01 T00201048  RH  061%=      5-min Rain = 0
KSC1 191346Z 32011KT 02/M05 A3027 RMK A01 T00201049  RH  060%=      5-min Rain = 0
KSC1 191347Z 32010KT 02/M05 A3027 RMK A01 T00201049  RH  060%=      5-min Rain = 0
KSC1 191348Z 32012KT 02/M05 A3027 RMK A01 T00191049  RH  060%=      5-min Rain = 0
KSC1 191349Z 33011KT 02/M05 A3027 RMK A01 T00191049  RH  061%=      5-min Rain = 0
KSC1 191350Z 32012KT 02/M05 A3027 RMK A01 T00191050  RH  060%=      5-min Rain = 0
KSC1 191351Z 33010G15KT 02/M05 A3027 RMK A01 T00191050  RH  060%=      5-min Rain = 0
KSC1 191352Z 33009KT 02/M05 A3027 RMK A01 T00191049  RH  060%=      5-min Rain = 0
KSC1 191353Z 32009KT 02/M05 A3027 RMK A01 T00181049  RH  061%=      5-min Rain = 0
KSC1 191354Z 33011KT 02/M05 A3027 RMK A01 T00181049  RH  061%=      5-min Rain = 0
KSC1 191355Z 33013KT 02/M05 A3027 RMK A01 T00181049  RH  061%=      5-min Rain = 0
KSC1 191356Z 33012KT 02/M05 A3027 RMK A01 T00191049  RH  061%=      5-min Rain = 0
KSC1 191357Z 32009KT 02/M05 A3027 RMK A01 T00191049  RH  061%=      5-min Rain = 0
KSC1 191358Z 32011KT 02/M05 A3027 RMK A01 T00191049  RH  061%=      5-min Rain = 0
KSC1 191359Z 33011KT 02/M05 A3027 RMK A01 T00191049  RH  061%=      5-min Rain = 0
KSC1 191400Z 32013KT 02/M05 A3027 RMK A01 T00191049  RH  061%=      5-min Rain = 0
KSC1 191401Z 32010KT 02/M05 A3027 RMK A01 T00191048  RH  061%=      5-min Rain = 0
KSC1 191402Z 32009KT 02/M05 A3027 RMK A01 T00191049  RH  061%=      5-min Rain = 0
KSC1 191403Z 32012KT 02/M05 A3027 RMK A01 T00201048  RH  061%=      5-min Rain = 0
KSC1 191404Z 32013KT 02/M05 A3027 RMK A01 T00201048  RH  061%=      5-min Rain = 0
KSC1 191405Z 32011KT 02/M05 A3028 RMK A01 T00201048  RH  061%=      5-min Rain = 0
KSC1 191406Z 32008KT 02/M05 A3028 RMK A01 T00201047  RH  061%=      5-min Rain = 0
KSC1 191407Z 32008KT 02/M05 A3028 RMK A01 T00201047  RH  061%=      5-min Rain = 0
KSC1 191408Z 31010KT 02/M05 A3028 RMK A01 T00191047  RH  062%=      5-min Rain = 0
KSC1 191409Z 31010KT 02/M05 A3028 RMK A01 T00201046  RH  062%=      5-min Rain = 0
KSC1 191410Z 32009KT 02/M05 A3028 RMK A01 T00191046  RH  062%=      5-min Rain = 0
KSC1 191411Z 32009KT 02/M05 A3028 RMK A01 T00191046  RH  062%=      5-min Rain = 0
KSC1 191412Z 31010KT 02/M05 A3028 RMK A01 T00201046  RH  062%=      5-min Rain = 0
KSC1 191413Z 32009KT 02/M05 A3028 RMK A01 T00201046  RH  062%=      5-min Rain = 0
KSC1 191414Z 32010G15KT 02/M05 A3028 RMK A01 T00201046  RH  062%=      5-min Rain = 0
KSC1 191415Z 31012KT 02/M05 A3028 RMK A01 T00211045  RH  062%=      5-min Rain = 0
KSC1 191416Z 32011KT 02/M05 A3028 RMK A01 T00221045  RH  061%=      5-min Rain = 0
KSC1 191417Z 32010KT 02/M05 A3028 RMK A01 T00221045  RH  061%=      5-min Rain = 0
KSC1 191418Z 31012KT 02/M04 A3028 RMK A01 T00231044  RH  061%=      5-min Rain = 0
KSC1 191419Z 31011KT 02/M05 A3028 RMK A01 T00231045  RH  061%=      5-min Rain = 0
KSC1 191420Z 32011KT 02/M05 A3028 RMK A01 T00241045  RH  060%=      5-min Rain = 0
KSC1 191421Z 31012G17KT 02/M05 A3028 RMK A01 T00241045  RH  060%=      5-min Rain = 0
KSC1 191422Z 31009KT 03/M04 A3028 RMK A01 T00251044  RH  060%=      5-min Rain = 0
KSC1 191423Z 31011KT 03/M04 A3028 RMK A01 T00251044  RH  060%=      5-min Rain = 0
KSC1 191424Z 31011KT 03/M04 A3028 RMK A01 T00261044  RH  060%=      5-min Rain = 0
KSC1 191425Z 31011KT 03/M04 A3029 RMK A01 T00261044  RH  060%=      5-min Rain = 0
KSC1 191426Z 31012KT 03/M04 A3029 RMK A01 T00271044  RH  060%=      5-min Rain = 0
KSC1 191427Z 31012KT 03/M04 A3029 RMK A01 T00271044  RH  059%=      5-min Rain = 0
KSC1 191428Z 31014KT 03/M04 A3029 RMK A01 T00271044  RH  059%=      5-min Rain = 0
KSC1 191429Z 31013KT 03/M04 A3029 RMK A01 T00281044  RH  059%=      5-min Rain = 0
KSC1 191430Z 31012G17KT 03/M04 A3029 RMK A01 T00281044  RH  059%=      5-min Rain = 0
KSC1 191431Z 30012KT 03/M04 A3029 RMK A01 T00291044  RH  059%=      5-min Rain = 0
KSC1 191432Z 31015KT 03/M04 A3029 RMK A01 T00291044  RH  059%=      5-min Rain = 0
KSC1 191433Z 31012KT 03/M04 A3029 RMK A01 T00301044  RH  058%=      5-min Rain = 0
KSC1 191434Z 31011KT 03/M04 A3029 RMK A01 T00301044  RH  058%=      5-min Rain = 0
KSC1 191435Z 31011KT 03/M04 A3029 RMK A01 T00301044  RH  058%=      5-min Rain = 0
KSC1 191436Z 31012KT 03/M04 A3029 RMK A01 T00311044  RH  058%=      5-min Rain = 0
KSC1 191437Z 31015G22KT 03/M04 A3029 RMK A01 T00311043  RH  058%=      5-min Rain = 0
KSC1 191438Z 31013KT 03/M04 A3029 RMK A01 T00311044  RH  058%=      5-min Rain = 0
KSC1 191439Z 31012G17KT 03/M04 A303 RMK A01 T00321044  RH  058%=      5-min Rain = 0
KSC1 191440Z 31013KT 03/M04 A303 RMK A01 T00321043  RH  058%=      5-min Rain = 0
KSC1 191441Z 31014KT 03/M04 A303 RMK A01 T00321044  RH  058%=      5-min Rain = 0
KSC1 191442Z 31015KT 03/M04 A303 RMK A01 T00331044  RH  057%=      5-min Rain = 0
KSC1 191443Z 31013G18KT 03/M04 A303 RMK A01 T00331044  RH  057%=      5-min Rain = 0
KSC1 191444Z 31012KT 03/M04 A303 RMK A01 T00331043  RH  057%=      5-min Rain = 0
KSC1 191445Z 31014G19KT 03/M04 A303 RMK A01 T00341043  RH  057%=      5-min Rain = 0
KSC1 191446Z 31011KT 03/M04 A303 RMK A01 T00341043  RH  057%=      5-min Rain = 0
KSC1 191447Z 31012G17KT 03/M04 A303 RMK A01 T00341043  RH  057%=      5-min Rain = 0
KSC1 191448Z 31012G17KT 04/M04 A303 RMK A01 T00351042  RH  057%=      5-min Rain = 0
KSC1 191449Z 31015G22KT 04/M04 A303 RMK A01 T00351043  RH  057%=      5-min Rain = 0
KSC1 191450Z 32017KT 04/M04 A303 RMK A01 T00351044  RH  056%=      5-min Rain = 0
KSC1 191451Z 31011G16KT 04/M04 A303 RMK A01 T00361044  RH  056%=      5-min Rain = 0
KSC1 191452Z 31010G15KT 04/M04 A303 RMK A01 T00361043  RH  056%=      5-min Rain = 0
KSC1 191453Z 31014G19KT 04/M04 A303 RMK A01 T00371042  RH  056%=      5-min Rain = 0
KSC1 191454Z 32013G19KT 04/M04 A303 RMK A01 T00371043  RH  056%=      5-min Rain = 0
KSC1 191455Z 32011KT 04/M04 A3031 RMK A01 T00371043  RH  056%=      5-min Rain = 0
KSC1 191456Z 31012KT 04/M04 A3031 RMK A01 T00381042  RH  056%=      5-min Rain = 0
KSC1 191457Z 32014KT 04/M04 A3031 RMK A01 T00381041  RH  056%=      5-min Rain = 0
KSC1 191458Z 32014KT 04/M04 A3031 RMK A01 T00391042  RH  056%=      5-min Rain = 0
KSC1 191459Z 31016KT 04/M04 A3031 RMK A01 T00391042  RH  055%=      5-min Rain = 0
KSC1 191500Z 32017KT 04/M04 A3031 RMK A01 T00391043  RH  055%=      5-min Rain = 0
KSC1 191501Z 32014G19KT 04/M04 A3031 RMK A01 T00391043  RH  055%=      5-min Rain = 0
KSC1 191502Z 31012KT 04/M04 A3031 RMK A01 T00391043  RH  055%=      5-min Rain = 0
KSC1 191503Z 32016KT 04/M04 A3031 RMK A01 T00401042  RH  055%=      5-min Rain = 0
KSC1 191504Z 32014KT 04/M04 A3031 RMK A01 T00401042  RH  055%=      5-min Rain = 0
KSC1 191505Z 32012G18KT 04/M04 A3031 RMK A01 T00401041  RH  055%=      5-min Rain = 0
KSC1 191506Z 32014KT 04/M04 A3031 RMK A01 T00411041  RH  055%=      5-min Rain = 0
KSC1 191507Z 31015KT 04/M04 A3031 RMK A01 T00411042  RH  055%=      5-min Rain = 0
KSC1 191508Z 31016KT 04/M04 A3031 RMK A01 T00411042  RH  055%=      5-min Rain = 0
KSC1 191509Z 31011KT 04/M04 A3031 RMK A01 T00411042  RH  055%=      5-min Rain = 0
KSC1 191510Z 32013G18KT 04/M04 A3031 RMK A01 T00421040  RH  055%=      5-min Rain = 0
KSC1 191511Z 32013G18KT 04/M04 A3031 RMK A01 T00431041  RH  055%=      5-min Rain = 0
KSC1 191512Z 31011KT 04/M04 A3031 RMK A01 T00431041  RH  055%=      5-min Rain = 0
KSC1 191513Z 32011G16KT 04/M04 A3031 RMK A01 T00441039  RH  055%=      5-min Rain = 0
KSC1 191514Z 32014KT 05/M04 A3031 RMK A01 T00451039  RH  054%=      5-min Rain = 0
KSC1 191515Z 33015G20KT 05/M04 A3031 RMK A01 T00451040  RH  054%=      5-min Rain = 0
KSC1 191516Z 32012G17KT 05/M04 A3031 RMK A01 T00451040  RH  054%=      5-min Rain = 0
KSC1 191517Z 31010KT 05/M04 A3031 RMK A01 T00461038  RH  055%=      5-min Rain = 0
KSC1 191518Z 31014KT 05/M04 A3031 RMK A01 T00471038  RH  054%=      5-min Rain = 0
KSC1 191519Z 31016KT 05/M04 A3031 RMK A01 T00471040  RH  053%=      5-min Rain = 0
KSC1 191520Z 32017KT 05/M04 A3031 RMK A01 T00471040  RH  053%=      5-min Rain = 0
KSC1 191521Z 32014KT 05/M04 A3032 RMK A01 T00471039  RH  053%=      5-min Rain = 0
KSC1 191522Z 32010KT 05/M04 A3032 RMK A01 T00471040  RH  053%=      5-min Rain = 0
KSC1 191523Z 32014KT 05/M04 A3032 RMK A01 T00481039  RH  053%=      5-min Rain = 0
KSC1 191524Z 32011G16KT 05/M04 A3032 RMK A01 T00491039  RH  053%=      5-min Rain = 0
KSC1 191525Z 32015KT 05/M04 A3032 RMK A01 T00491040  RH  053%=      5-min Rain = 0
KSC1 191526Z 32013KT 05/M04 A3032 RMK A01 T00491040  RH  052%=      5-min Rain = 0
KSC1 191527Z 31012G18KT 05/M04 A3032 RMK A01 T00491040  RH  052%=      5-min Rain = 0
KSC1 191528Z 32016G21KT 05/M04 A3032 RMK A01 T00501040  RH  052%=      5-min Rain = 0
KSC1 191529Z 31017KT 05/M04 A3032 RMK A01 T00501041  RH  052%=      5-min Rain = 0
KSC1 191530Z 32017G22KT 05/M04 A3032 RMK A01 T00501042  RH  051%=      5-min Rain = 0
KSC1 191531Z 33014KT 05/M04 A3032 RMK A01 T00501042  RH  051%=      5-min Rain = 0
KSC1 191532Z 32013KT 05/M04 A3033 RMK A01 T00501041  RH  052%=      5-min Rain = 0
KSC1 191533Z 31014KT 05/M04 A3032 RMK A01 T00521039  RH  052%=      5-min Rain = 0
KSC1 191534Z 31013G18KT 05/M04 A3032 RMK A01 T00521040  RH  051%=      5-min Rain = 0
KSC1 191535Z 32014G19KT 05/M04 A3033 RMK A01 T00531039  RH  051%=      5-min Rain = 0
KSC1 191536Z 32019G24KT 05/M04 A3033 RMK A01 T00531041  RH  051%=      5-min Rain = 0
KSC1 191537Z 32019KT 05/M04 A3033 RMK A01 T00521042  RH  050%=      5-min Rain = 0
KSC1 191538Z 31018KT 05/M04 A3033 RMK A01 T00521043  RH  050%=      5-min Rain = 0
KSC1 191539Z 32013G19KT 05/M04 A3033 RMK A01 T00521043  RH  050%=      5-min Rain = 0
KSC1 191540Z 32015G21KT 05/M04 A3033 RMK A01 T00531041  RH  051%=      5-min Rain = 0
KSC1 191541Z 33017KT 05/M04 A3033 RMK A01 T00531042  RH  050%=      5-min Rain = 0
KSC1 191542Z 32015KT 05/M04 A3033 RMK A01 T00531041  RH  050%=      5-min Rain = 0
KSC1 191543Z 34014KT 05/M04 A3033 RMK A01 T00541041  RH  051%=      5-min Rain = 0
KSC1 191544Z 32015KT 05/M04 A3033 RMK A01 T00541040  RH  050%=      5-min Rain = 0
KSC1 191545Z 33015KT 06/M04 A3033 RMK A01 T00551041  RH  050%=      5-min Rain = 0
KSC1 191546Z 32011KT 06/M04 A3033 RMK A01 T00551041  RH  050%=      5-min Rain = 0
KSC1 191547Z 32014G19KT 06/M04 A3033 RMK A01 T00561040  RH  050%=      5-min Rain = 0
KSC1 191548Z 32016G21KT 06/M04 A3033 RMK A01 T00571041  RH  050%=      5-min Rain = 0
KSC1 191549Z 33013KT 06/M04 A3034 RMK A01 T00561042  RH  049%=      5-min Rain = 0
KSC1 191550Z 32011KT 06/M04 A3034 RMK A01 T00561041  RH  049%=      5-min Rain = 0
KSC1 191551Z 31013G19KT 06/M04 A3034 RMK A01 T00571040  RH  049%=      5-min Rain = 0
KSC1 191552Z 33016G25KT 06/M04 A3034 RMK A01 T00581041  RH  049%=      5-min Rain = 0
KSC1 191553Z 32016KT 06/M04 A3034 RMK A01 T00581042  RH  049%=      5-min Rain = 0
KSC1 191554Z 32014G20KT 06/M04 A3034 RMK A01 T00581043  RH  048%=      5-min Rain = 0
KSC1 191555Z 33015G20KT 06/M04 A3034 RMK A01 T00571043  RH  048%=      5-min Rain = 0
KSC1 191556Z 33017KT 06/M04 A3034 RMK A01 T00571043  RH  048%=      5-min Rain = 0
KSC1 191557Z 33015G20KT 06/M04 A3034 RMK A01 T00571044  RH  048%=      5-min Rain = 0
KSC1 191558Z 33012KT 06/M04 A3034 RMK A01 T00571042  RH  049%=      5-min Rain = 0
KSC1 191559Z 34012KT 06/M04 A3034 RMK A01 T00591040  RH  049%=      5-min Rain = 0
KSC1 191600Z 34011KT 06/M04 A3034 RMK A01 T00601040  RH  049%=      5-min Rain = 0
KSC1 191601Z 33014G19KT 06/M04 A3034 RMK A01 T00621039  RH  048%=      5-min Rain = 0
KSC1 191602Z 33015G21KT 06/M04 A3034 RMK A01 T00621042  RH  047%=      5-min Rain = 0
KSC1 191603Z 34013G19KT 06/M04 A3034 RMK A01 T00611042  RH  048%=      5-min Rain = 0
KSC1 191604Z 33015G21KT 06/M04 A3034 RMK A01 T00611041  RH  048%=      5-min Rain = 0
KSC1 191605Z 33017KT 06/M04 A3034 RMK A01 T00621042  RH  047%=      5-min Rain = 0
KSC1 191606Z 33015G20KT 06/M04 A3034 RMK A01 T00611043  RH  047%=      5-min Rain = 0
KSC1 191607Z 32016G21KT 06/M04 A3034 RMK A01 T00621043  RH  047%=      5-min Rain = 0
KSC1 191608Z 32014G20KT 06/M04 A3034 RMK A01 T00621042  RH  047%=      5-min Rain = 0
KSC1 191609Z 32015KT 06/M04 A3034 RMK A01 T00631042  RH  047%=      5-min Rain = 0
KSC1 191610Z 32013G19KT 06/M04 A3034 RMK A01 T00631042  RH  047%=      5-min Rain = 0
KSC1 191611Z 33013KT 06/M04 A3034 RMK A01 T00641041  RH  047%=      5-min Rain = 0
KSC1 191612Z 33015KT 07/M04 A3034 RMK A01 T00651040  RH  047%=      5-min Rain = 0
KSC1 191613Z 33013KT 07/M04 A3034 RMK A01 T00661042  RH  046%=      5-min Rain = 0
KSC1 191614Z 33013KT 07/M04 A3034 RMK A01 T00671041  RH  046%=      5-min Rain = 0
KSC1 191615Z 32012G18KT 07/M04 A3035 RMK A01 T00681041  RH  046%=      5-min Rain = 0
KSC1 191616Z 32016G22KT 07/M04 A3035 RMK A01 T00681041  RH  046%=      5-min Rain = 0
KSC1 191617Z 33016G21KT 07/M04 A3035 RMK A01 T00681042  RH  045%=      5-min Rain = 0
KSC1 191618Z 33017G23KT 07/M04 A3035 RMK A01 T00681042  RH  046%=      5-min Rain = 0
KSC1 191619Z 33016G22KT 07/M04 A3034 RMK A01 T00681043  RH  045%=      5-min Rain = 0
KSC1 191620Z 33019KT 07/M04 A3034 RMK A01 T00671044  RH  045%=      5-min Rain = 0
KSC1 191621Z 33014KT 07/M05 A3034 RMK A01 T00661045  RH  045%=      5-min Rain = 0
KSC1 191622Z 33012KT 07/M04 A3034 RMK A01 T00671042  RH  046%=      5-min Rain = 0
KSC1 191623Z 34017G24KT 07/M04 A3034 RMK A01 T00691041  RH  045%=      5-min Rain = 0
KSC1 191624Z 33017KT 07/M04 A3034 RMK A01 T00681044  RH  045%=      5-min Rain = 0
KSC1 191625Z 33013G18KT 07/M04 A3034 RMK A01 T00681044  RH  045%=      5-min Rain = 0
KSC1 191626Z 33015G20KT 07/M04 A3034 RMK A01 T00681043  RH  045%=      5-min Rain = 0
KSC1 191627Z 33015G24KT 07/M04 A3034 RMK A01 T00691042  RH  045%=      5-min Rain = 0
KSC1 191628Z 33016G21KT 07/M04 A3034 RMK A01 T00701041  RH  045%=      5-min Rain = 0
KSC1 191629Z 33017KT 07/M04 A3034 RMK A01 T00701042  RH  045%=      5-min Rain = 0
KSC1 191630Z 33015G21KT 07/M04 A3034 RMK A01 T00711042  RH  045%=      5-min Rain = 0
KSC1 191631Z 32019KT 07/M04 A3034 RMK A01 T00711042  RH  044%=      5-min Rain = 0
KSC1 191632Z 32019KT 07/M04 A3034 RMK A01 T00701043  RH  044%=      5-min Rain = 0
KSC1 191633Z 32018KT 07/M04 A3034 RMK A01 T00701043  RH  044%=      5-min Rain = 0
KSC1 191634Z 32017G24KT 07/M04 A3034 RMK A01 T00701043  RH  044%=      5-min Rain = 0
KSC1 191635Z 32018G23KT 07/M04 A3034 RMK A01 T00701043  RH  044%=      5-min Rain = 0
KSC1 191636Z 31017KT 07/M04 A3034 RMK A01 T00701043  RH  044%=      5-min Rain = 0
KSC1 191637Z 32020G25KT 07/M04 A3034 RMK A01 T00711043  RH  044%=      5-min Rain = 0
KSC1 191638Z 31018KT 07/M04 A3034 RMK A01 T00701044  RH  044%=      5-min Rain = 0
KSC1 191639Z 33016KT 07/M04 A3034 RMK A01 T00701044  RH  044%=      5-min Rain = 0
KSC1 191640Z 33014KT 07/M04 A3034 RMK A01 T00711042  RH  044%=      5-min Rain = 0
KSC1 191641Z 32017KT 07/M04 A3034 RMK A01 T00721040  RH  045%=      5-min Rain = 0
KSC1 191642Z 32015G20KT 07/M04 A3034 RMK A01 T00731041  RH  044%=      5-min Rain = 0
KSC1 191643Z 33018G25KT 07/M04 A3034 RMK A01 T00741041  RH  044%=      5-min Rain = 0
KSC1 191644Z 33019KT 07/M04 A3034 RMK A01 T00741044  RH  043%=      5-min Rain = 0
KSC1 191645Z 34019G26KT 07/M05 A3034 RMK A01 T00721045  RH  043%=      5-min Rain = 0
KSC1 191646Z 33019KT 07/M05 A3034 RMK A01 T00711046  RH  043%=      5-min Rain = 0
KSC1 191647Z 33017KT 07/M05 A3034 RMK A01 T00711045  RH  043%=      5-min Rain = 0
KSC1 191648Z 33016G21KT 07/M04 A3034 RMK A01 T00721044  RH  044%=      5-min Rain = 0
KSC1 191649Z 34016KT 07/M04 A3034 RMK A01 T00731043  RH  044%=      5-min Rain = 0
KSC1 191650Z 33015G21KT 07/M04 A3034 RMK A01 T00741043  RH  043%=      5-min Rain = 0
KSC1 191651Z 33015KT 08/M04 A3034 RMK A01 T00751041  RH  044%=      5-min Rain = 0
KSC1 191652Z 33017KT 08/M04 A3034 RMK A01 T00751042  RH  043%=      5-min Rain = 0
KSC1 191653Z 33017KT 08/M04 A3034 RMK A01 T00751043  RH  043%=      5-min Rain = 0
KSC1 191654Z 33015KT 07/M04 A3034 RMK A01 T00741043  RH  043%=      5-min Rain = 0
KSC1 191655Z 32015KT 07/M04 A3034 RMK A01 T00741043  RH  043%=      5-min Rain = 0
KSC1 191656Z 32016KT 07/M04 A3034 RMK A01 T00741043  RH  043%=      5-min Rain = 0
KSC1 191657Z 32015G22KT 08/M04 A3034 RMK A01 T00751042  RH  043%=      5-min Rain = 0
KSC1 191658Z 32017KT 08/M04 A3034 RMK A01 T00751041  RH  044%=      5-min Rain = 0
KSC1 191659Z 33016KT 08/M04 A3034 RMK A01 T00761040  RH  043%=      5-min Rain = 0
KSC1 191700Z 33015KT 08/M04 A3034 RMK A01 T00771040  RH  043%=      5-min Rain = 0
KSC1 191701Z 33012G18KT 08/M04 A3034 RMK A01 T00771040  RH  043%=      5-min Rain = 0
KSC1 191702Z 33012G17KT 08/M04 A3034 RMK A01 T00791037  RH  044%=      5-min Rain = 0
KSC1 191703Z 33016KT 08/M04 A3034 RMK A01 T00801037  RH  043%=      5-min Rain = 0
KSC1 191704Z 33015KT 08/M04 A3034 RMK A01 T00801039  RH  043%=      5-min Rain = 0
KSC1 191705Z 33016KT 08/M04 A3034 RMK A01 T00791039  RH  043%=      5-min Rain = 0
KSC1 191706Z 33015KT 08/M04 A3034 RMK A01 T00791039  RH  043%=      5-min Rain = 0
KSC1 191707Z 34012G18KT 08/M04 A3034 RMK A01 T00791038  RH  043%=      5-min Rain = 0
KSC1 191708Z 33014G20KT 08/M04 A3034 RMK A01 T00801037  RH  043%=      5-min Rain = 0
KSC1 191709Z 33019KT 08/M04 A3034 RMK A01 T00821038  RH  043%=      5-min Rain = 0
KSC1 191710Z 33017G22KT 08/M04 A3034 RMK A01 T00801041  RH  042%=      5-min Rain = 0
KSC1 191711Z 33018KT 08/M04 A3034 RMK A01 T00791041  RH  042%=      5-min Rain = 0
KSC1 191712Z 33018KT 08/M04 A3034 RMK A01 T00801040  RH  043%=      5-min Rain = 0
KSC1 191713Z 33014KT 08/M04 A3034 RMK A01 T00791040  RH  042%=      5-min Rain = 0
KSC1 191714Z 34014KT 08/M04 A3034 RMK A01 T00811038  RH  043%=      5-min Rain = 0
KSC1 191715Z 34015KT 08/M04 A3034 RMK A01 T00821038  RH  043%=      5-min Rain = 0
KSC1 191716Z 34015G21KT 08/M04 A3034 RMK A01 T00831037  RH  043%=      5-min Rain = 0
KSC1 191717Z 33017KT 08/M04 A3034 RMK A01 T00831038  RH  042%=      5-min Rain = 0
KSC1 191718Z 33015G20KT 08/M04 A3034 RMK A01 T00831039  RH  042%=      5-min Rain = 0
KSC1 191719Z 33015KT 08/M04 A3034 RMK A01 T00821039  RH  042%=      5-min Rain = 0
KSC1 191720Z 32017KT 08/M04 A3034 RMK A01 T00821040  RH  042%=      5-min Rain = 0
KSC1 191721Z 34013KT 08/M04 A3034 RMK A01 T00811040  RH  042%=      5-min Rain = 0
KSC1 191722Z 33015KT 08/M04 A3034 RMK A01 T00811038  RH  043%=      5-min Rain = 0
KSC1 191723Z 34018KT 08/M04 A3034 RMK A01 T00831039  RH  042%=      5-min Rain = 0
KSC1 191724Z 33017G22KT 08/M04 A3034 RMK A01 T00831039  RH  042%=      5-min Rain = 0
KSC1 191725Z 32016KT 08/M04 A3034 RMK A01 T00831039  RH  042%=      5-min Rain = 0
KSC1 191726Z 32018KT 08/M04 A3034 RMK A01 T00831039  RH  042%=      5-min Rain = 0
KSC1 191727Z 32013KT 08/M04 A3034 RMK A01 T00831040  RH  042%=      5-min Rain = 0
KSC1 191728Z 34012KT 09/M04 A3034 RMK A01 T00851036  RH  042%=      5-min Rain = 0
KSC1 191729Z 34014KT 09/M04 A3034 RMK A01 T00861037  RH  042%=      5-min Rain = 0
KSC1 191730Z 34015KT 09/M04 A3034 RMK A01 T00851038  RH  041%=      5-min Rain = 0
KSC1 191731Z 33015KT 09/M04 A3034 RMK A01 T00851038  RH  042%=      5-min Rain = 0
KSC1 191732Z 33011KT 09/M04 A3034 RMK A01 T00861036  RH  042%=      5-min Rain = 0
KSC1 191733Z 32012G17KT 09/M03 A3034 RMK A01 T00891033  RH  042%=      5-min Rain = 0
KSC1 191734Z 33015KT 09/M04 A3034 RMK A01 T00901037  RH  041%=      5-min Rain = 0
KSC1 191735Z 33015G21KT 09/M04 A3034 RMK A01 T00881039  RH  040%=      5-min Rain = 0
KSC1 191736Z 33016KT 09/M04 A3034 RMK A01 T00881039  RH  041%=      5-min Rain = 0
KSC1 191737Z 32015KT 09/M04 A3034 RMK A01 T00871039  RH  041%=      5-min Rain = 0
KSC1 191738Z 33014KT 09/M04 A3034 RMK A01 T00881039  RH  041%=      5-min Rain = 0
KSC1 191739Z 33016KT 09/M04 A3034 RMK A01 T00901038  RH  040%=      5-min Rain = 0
KSC1 191740Z 32016G21KT 09/M04 A3034 RMK A01 T00901039  RH  040%=      5-min Rain = 0
KSC1 191741Z 32016KT 09/M04 A3034 RMK A01 T00901039  RH  040%=      5-min Rain = 0
KSC1 191742Z 33016G21KT 09/M04 A3034 RMK A01 T00891040  RH  040%=      5-min Rain = 0
KSC1 191743Z 33012KT 09/M04 A3034 RMK A01 T00881040  RH  040%=      5-min Rain = 0
KSC1 191744Z 33014G21KT 09/M04 A3034 RMK A01 T00901036  RH  041%=      5-min Rain = 0
KSC1 191745Z 33016KT 09/M04 A3034 RMK A01 T00911037  RH  040%=      5-min Rain = 0
KSC1 191746Z 33017KT 09/M04 A3034 RMK A01 T00901039  RH  040%=      5-min Rain = 0
KSC1 191747Z 32017KT 09/M04 A3034 RMK A01 T00881040  RH  040%=      5-min Rain = 0
KSC1 191748Z 32016KT 09/M04 A3034 RMK A01 T00871039  RH  041%=      5-min Rain = 0
KSC1 191749Z 33014G19KT 09/M04 A3034 RMK A01 T00871038  RH  041%=      5-min Rain = 0
KSC1 191750Z 33014KT 09/M04 A3034 RMK A01 T00881037  RH  041%=      5-min Rain = 0
KSC1 191751Z 32014KT 09/M04 A3033 RMK A01 T00881037  RH  041%=      5-min Rain = 0
KSC1 191752Z 32012G17KT 09/M04 A3033 RMK A01 T00891036  RH  041%=      5-min Rain = 0
KSC1 191753Z 33015KT 09/M03 A3034 RMK A01 T00921034  RH  041%=      5-min Rain = 0
KSC1 191754Z 32013KT 09/M04 A3034 RMK A01 T00931035  RH  040%=      5-min Rain = 0
KSC1 191755Z 31011KT 10/M03 A3034 RMK A01 T00951033  RH  041%=      5-min Rain = 0
KSC1 191756Z 31013KT 10/M03 A3034 RMK A01 T00971033  RH  040%=      5-min Rain = 0
KSC1 191757Z 32013KT 10/M04 A3034 RMK A01 T00961036  RH  039%=      5-min Rain = 0
KSC1 191758Z 32013KT 10/M04 A3034 RMK A01 T00951035  RH  040%=      5-min Rain = 0
KSC1 191759Z 32015KT 10/M03 A3034 RMK A01 T00961034  RH  040%=      5-min Rain = 0
KSC1 191800Z 32013KT 10/M04 A3033 RMK A01 T00961037  RH  039%=      5-min Rain = 0
KSC1 191801Z 33015KT 10/M04 A3034 RMK A01 T00951036  RH  040%=      5-min Rain = 0
KSC1 191802Z 32015KT 10/M04 A3034 RMK A01 T00951037  RH  039%=      5-min Rain = 0
KSC1 191803Z 33015KT 09/M04 A3033 RMK A01 T00941037  RH  040%=      5-min Rain = 0
KSC1 191804Z 33013G18KT 09/M04 A3034 RMK A01 T00941036  RH  040%=      5-min Rain = 0
KSC1 191805Z 31017KT 10/M04 A3033 RMK A01 T00951036  RH  040%=      5-min Rain = 0
KSC1 191806Z 32014KT 09/M04 A3033 RMK A01 T00941039  RH  039%=      5-min Rain = 0
KSC1 191807Z 32013KT 09/M04 A3033 RMK A01 T00931038  RH  039%=      5-min Rain = 0
KSC1 191808Z 32018KT 10/M04 A3033 RMK A01 T00951036  RH  039%=      5-min Rain = 0
KSC1 191809Z 31012KT 10/M04 A3033 RMK A01 T00961038  RH  039%=      5-min Rain = 0
KSC1 191810Z 32016KT 10/M04 A3033 RMK A01 T00951037  RH  039%=      5-min Rain = 0
KSC1 191811Z 31013KT 10/M04 A3033 RMK A01 T00961036  RH  039%=      5-min Rain = 0
KSC1 191812Z 31012KT 10/M04 A3033 RMK A01 T00961036  RH  039%=      5-min Rain = 0
KSC1 191813Z 31013G19KT 10/M03 A3033 RMK A01 T00971034  RH  039%=      5-min Rain = 0
KSC1 191814Z 31013G19KT 10/M04 A3033 RMK A01 T00971036  RH  039%=      5-min Rain = 0
KSC1 191815Z 31015KT 10/M03 A3033 RMK A01 T00971034  RH  040%=      5-min Rain = 0
KSC1 191816Z 31013KT 10/M03 A3033 RMK A01 T00991034  RH  039%=      5-min Rain = 0
KSC1 191817Z 31016G21KT 10/M04 A3033 RMK A01 T00991035  RH  039%=      5-min Rain = 0
KSC1 191818Z 31016KT 10/M04 A3033 RMK A01 T00981039  RH  038%=      5-min Rain = 0
KSC1 191819Z 32016KT 10/M04 A3033 RMK A01 T00971039  RH  038%=      5-min Rain = 0
KSC1 191820Z 32017KT 10/M04 A3033 RMK A01 T00971039  RH  038%=      5-min Rain = 0
KSC1 191821Z 30013KT 10/M04 A3033 RMK A01 T00971039  RH  038%=      5-min Rain = 0
KSC1 191822Z 30014KT 10/M04 A3033 RMK A01 T00981038  RH  038%=      5-min Rain = 0
KSC1 191823Z 32015KT 10/M04 A3033 RMK A01 T00991038  RH  038%=      5-min Rain = 0
KSC1 191824Z 31011KT 10/M04 A3033 RMK A01 T00981038  RH  038%=      5-min Rain = 0
KSC1 191825Z 32010KT 10/M04 A3033 RMK A01 T00991037  RH  038%=      5-min Rain = 0
KSC1 191826Z 32017KT 10/M04 A3033 RMK A01 T01011036  RH  038%=      5-min Rain = 0
KSC1 191827Z 32014KT 10/M04 A3033 RMK A01 T01001037  RH  038%=      5-min Rain = 0
KSC1 191828Z 32014KT 10/M04 A3033 RMK A01 T01001037  RH  038%=      5-min Rain = 0
KSC1 191829Z 32014KT 10/M04 A3033 RMK A01 T00991037  RH  038%=      5-min Rain = 0
KSC1 191830Z 32013KT 10/M04 A3032 RMK A01 T00991037  RH  038%=      5-min Rain = 0
KSC1 191831Z 31009KT 10/M04 A3032 RMK A01 T01001035  RH  038%=      5-min Rain = 0
KSC1 191832Z 31012KT 10/M03 A3032 RMK A01 T01021033  RH  039%=      5-min Rain = 0
KSC1 191833Z 31012G17KT 10/M04 A3032 RMK A01 T01041035  RH  038%=      5-min Rain = 0
KSC1 191834Z 32011G17KT 10/M04 A3032 RMK A01 T01041036  RH  037%=      5-min Rain = 0
KSC1 191835Z 32013G18KT 10/M03 A3032 RMK A01 T01041034  RH  038%=      5-min Rain = 0
KSC1 191836Z 31011G16KT 11/M03 A3032 RMK A01 T01051034  RH  037%=      5-min Rain = 0
KSC1 191837Z 31015KT 11/M04 A3032 RMK A01 T01061036  RH  037%=      5-min Rain = 0
KSC1 191838Z 31015G20KT 11/M04 A3032 RMK A01 T01051037  RH  037%=      5-min Rain = 0
KSC1 191839Z 31015KT 10/M04 A3032 RMK A01 T01031040  RH  036%=      5-min Rain = 0
KSC1 191840Z 32015G21KT 10/M04 A3032 RMK A01 T01021039  RH  037%=      5-min Rain = 0
KSC1 191841Z 31011KT 10/M04 A3032 RMK A01 T01031037  RH  037%=      5-min Rain = 0
KSC1 191842Z 32016KT 11/M04 A3032 RMK A01 T01071036  RH  037%=      5-min Rain = 0
KSC1 191843Z 30014G21KT 11/M04 A3032 RMK A01 T01061038  RH  036%=      5-min Rain = 0
KSC1 191844Z 31013G23KT 11/M04 A3032 RMK A01 T01061038  RH  036%=      5-min Rain = 0
KSC1 191845Z 32015KT 11/M04 A3032 RMK A01 T01071036  RH  037%=      5-min Rain = 0
KSC1 191846Z 33016G23KT 11/M04 A3032 RMK A01 T01071040  RH  035%=      5-min Rain = 0
KSC1 191847Z 31019KT 11/M04 A3032 RMK A01 T01051042  RH  035%=      5-min Rain = 0
KSC1 191848Z 32021G26KT 11/M04 A3032 RMK A01 T01051041  RH  036%=      5-min Rain = 0
KSC1 191849Z 33019KT 11/M04 A3032 RMK A01 T01051043  RH  035%=      5-min Rain = 0
KSC1 191850Z 32015G21KT 10/M04 A3032 RMK A01 T01041043  RH  035%=      5-min Rain = 0
KSC1 191851Z 33013KT 11/M04 A3032 RMK A01 T01051040  RH  036%=      5-min Rain = 0
KSC1 191852Z 33012G18KT 11/M04 A3032 RMK A01 T01061039  RH  036%=      5-min Rain = 0
KSC1 191853Z 32011KT 11/M04 A3032 RMK A01 T01071037  RH  036%=      5-min Rain = 0
KSC1 191854Z 32013KT 11/M03 A3032 RMK A01 T01101033  RH  036%=      5-min Rain = 0
KSC1 191855Z 34011KT 11/M04 A3032 RMK A01 T01111036  RH  036%=      5-min Rain = 0
KSC1 191856Z 34013G20KT 11/M04 A3032 RMK A01 T01101036  RH  036%=      5-min Rain = 0
KSC1 191857Z 32016KT 11/M04 A3032 RMK A01 T01091037  RH  036%=      5-min Rain = 0
KSC1 191858Z 31014KT 11/M04 A3032 RMK A01 T01091037  RH  036%=      5-min Rain = 0
KSC1 191859Z 32013G22KT 11/M04 A3031 RMK A01 T01091036  RH  036%=      5-min Rain = 0
KSC1 191900Z 33011KT 11/M03 A3032 RMK A01 T01111034  RH  036%=      5-min Rain = 0
KSC1 191901Z 34013G19KT 12/M03 A3031 RMK A01 T01151033  RH  035%=      5-min Rain = 0
KSC1 191902Z 33017G22KT 12/M04 A3031 RMK A01 T01151036  RH  034%=      5-min Rain = 0
KSC1 191903Z 33015KT 11/M04 A3031 RMK A01 T01141039  RH  034%=      5-min Rain = 0
KSC1 191904Z 33016G21KT 11/M04 A3031 RMK A01 T01121038  RH  035%=      5-min Rain = 0
KSC1 191905Z 34019G24KT 11/M04 A3031 RMK A01 T01121039  RH  035%=      5-min Rain = 0
KSC1 191906Z 33015G20KT 11/M04 A3031 RMK A01 T01091040  RH  035%=      5-min Rain = 0
KSC1 191907Z 33013KT 11/M04 A3031 RMK A01 T01091038  RH  035%=      5-min Rain = 0
KSC1 191908Z 33016G21KT 11/M04 A3031 RMK A01 T01101038  RH  035%=      5-min Rain = 0
KSC1 191909Z 33013KT 11/M04 A3031 RMK A01 T01111038  RH  035%=      5-min Rain = 0
KSC1 191910Z 33012KT 11/M04 A3031 RMK A01 T01121036  RH  035%=      5-min Rain = 0
KSC1 191911Z 32013KT 11/M04 A3031 RMK A01 T01131036  RH  035%=      5-min Rain = 0
KSC1 191912Z 33016KT 11/M04 A3031 RMK A01 T01131037  RH  035%=      5-min Rain = 0
KSC1 191913Z 32013KT 11/M04 A3031 RMK A01 T01121037  RH  035%=      5-min Rain = 0
KSC1 191914Z 32011KT 11/M04 A3031 RMK A01 T01111035  RH  036%=      5-min Rain = 0
KSC1 191915Z 32013KT 11/M04 A303 RMK A01 T01131035  RH  035%=      5-min Rain = 0
KSC1 191916Z 32013KT 11/M04 A303 RMK A01 T01131037  RH  035%=      5-min Rain = 0
KSC1 191917Z 32015G25KT 11/M04 A303 RMK A01 T01131035  RH  035%=      5-min Rain = 0
KSC1 191918Z 33017G22KT 12/M04 A303 RMK A01 T01151037  RH  034%=      5-min Rain = 0
KSC1 191919Z 33013KT 11/M04 A303 RMK A01 T01121042  RH  034%=      5-min Rain = 0
KSC1 191920Z 33013KT 11/M04 A303 RMK A01 T01111040  RH  034%=      5-min Rain = 0
KSC1 191921Z 33019G25KT 11/M04 A303 RMK A01 T01131036  RH  035%=      5-min Rain = 0
KSC1 191922Z 33019KT 11/M04 A303 RMK A01 T01141039  RH  034%=      5-min Rain = 0
KSC1 191923Z 32015KT 11/M04 A303 RMK A01 T01131039  RH  034%=      5-min Rain = 0
KSC1 191924Z 33016G21KT 11/M04 A303 RMK A01 T01131040  RH  034%=      5-min Rain = 0
KSC1 191925Z 33015KT 11/M04 A303 RMK A01 T01131039  RH  034%=      5-min Rain = 0
KSC1 191926Z 33014G21KT 11/M04 A303 RMK A01 T01141039  RH  034%=      5-min Rain = 0
KSC1 191927Z 34013G18KT 12/M04 A303 RMK A01 T01151038  RH  034%=      5-min Rain = 0
KSC1 191928Z 34017KT 12/M04 A303 RMK A01 T01161036  RH  034%=      5-min Rain = 0
KSC1 191929Z 33013KT 12/M04 A3029 RMK A01 T01151040  RH  034%=      5-min Rain = 0
KSC1 191930Z 34013G18KT 11/M04 A3029 RMK A01 T01131039  RH  034%=      5-min Rain = 0
KSC1 191931Z 34015G21KT 12/M04 A3029 RMK A01 T01151037  RH  034%=      5-min Rain = 0
KSC1 191932Z 34017KT 12/M04 A3029 RMK A01 T01161037  RH  034%=      5-min Rain = 0
KSC1 191933Z 34017KT 12/M04 A3029 RMK A01 T01161038  RH  034%=      5-min Rain = 0
KSC1 191934Z 33017G23KT 12/M04 A3029 RMK A01 T01161040  RH  033%=      5-min Rain = 0
KSC1 191935Z 33012KT 11/M04 A3029 RMK A01 T01141042  RH  033%=      5-min Rain = 0
KSC1 191936Z 33013KT 11/M04 A3029 RMK A01 T01131040  RH  034%=      5-min Rain = 0
KSC1 191937Z 33013KT 12/M04 A3029 RMK A01 T01151039  RH  034%=      5-min Rain = 0
KSC1 191938Z 33017KT 12/M04 A3029 RMK A01 T01161039  RH  034%=      5-min Rain = 0
KSC1 191939Z 32012KT 12/M04 A3029 RMK A01 T01151040  RH  034%=      5-min Rain = 0
KSC1 191940Z 34015KT 12/M04 A3029 RMK A01 T01161037  RH  034%=      5-min Rain = 0
KSC1 191941Z 33016G22KT 12/M04 A3029 RMK A01 T01161039  RH  034%=      5-min Rain = 0
KSC1 191942Z 34014KT 12/M04 A3029 RMK A01 T01161039  RH  034%=      5-min Rain = 0
KSC1 191943Z 34015G20KT 12/M04 A3029 RMK A01 T01171038  RH  034%=      5-min Rain = 0
KSC1 191944Z 33013KT 12/M04 A3029 RMK A01 T01171038  RH  034%=      5-min Rain = 0
KSC1 191945Z 34016KT 12/M04 A3029 RMK A01 T01181039  RH  033%=      5-min Rain = 0
KSC1 191946Z 34013G21KT 12/M04 A3029 RMK A01 T01161040  RH  033%=      5-min Rain = 0
KSC1 191947Z 33013KT 12/M04 A3029 RMK A01 T01161038  RH  034%=      5-min Rain = 0
KSC1 191948Z 34012G17KT 12/M04 A3029 RMK A01 T01181035  RH  034%=      5-min Rain = 0
KSC1 191949Z 34016G23KT 12/M03 A3029 RMK A01 T01201034  RH  034%=      5-min Rain = 0
KSC1 191950Z 33014KT 12/M04 A3029 RMK A01 T01191037  RH  033%=      5-min Rain = 0
KSC1 191951Z 33013KT 12/M04 A3029 RMK A01 T01181036  RH  034%=      5-min Rain = 0
KSC1 191952Z 33013KT 12/M04 A3029 RMK A01 T01181036  RH  034%=      5-min Rain = 0
KSC1 191953Z 34013KT 12/M04 A3029 RMK A01 T01191035  RH  034%=      5-min Rain = 0
KSC1 191954Z 34014G19KT 12/M04 A3028 RMK A01 T01201035  RH  034%=      5-min Rain = 0
KSC1 191955Z 33013KT 12/M03 A3028 RMK A01 T01211034  RH  034%=      5-min Rain = 0
KSC1 191956Z 35014G19KT 12/M03 A3029 RMK A01 T01211034  RH  034%=      5-min Rain = 0
KSC1 191957Z 34017G22KT 12/M03 A3028 RMK A01 T01211034  RH  034%=      5-min Rain = 0
KSC1 191958Z 34015G22KT 12/M04 A3028 RMK A01 T01201036  RH  034%=      5-min Rain = 0
KSC1 191959Z 35017KT 12/M04 A3028 RMK A01 T01191035  RH  034%=      5-min Rain = 0
KSC1 192000Z 34016KT 12/M04 A3028 RMK A01 T01181036  RH  034%=      5-min Rain = 0
KSC1 192001Z 33011KT 12/M04 A3028 RMK A01 T01181036  RH  034%=      5-min Rain = 0
KSC1 192002Z 34012G17KT 12/M03 A3028 RMK A01 T01201031  RH  035%=      5-min Rain = 0
KSC1 192003Z 33015G22KT 12/M03 A3028 RMK A01 T01241029  RH  034%=      5-min Rain = 0
KSC1 192004Z 34014KT 13/M03 A3028 RMK A01 T01251032  RH  033%=      5-min Rain = 0
KSC1 192005Z 34017KT 12/M03 A3028 RMK A01 T01231033  RH  034%=      5-min Rain = 0
KSC1 192006Z 33014G19KT 12/M03 A3028 RMK A01 T01211034  RH  034%=      5-min Rain = 0
KSC1 192007Z 34011KT 12/M03 A3028 RMK A01 T01221031  RH  034%=      5-min Rain = 0
KSC1 192008Z 34013KT 12/M03 A3028 RMK A01 T01221033  RH  034%=      5-min Rain = 0
KSC1 192009Z 34016KT 12/M04 A3028 RMK A01 T01201035  RH  033%=      5-min Rain = 0
KSC1 192010Z 33014G19KT 12/M04 A3028 RMK A01 T01191036  RH  034%=      5-min Rain = 0
KSC1 192011Z 34010KT 12/M03 A3027 RMK A01 T01201032  RH  035%=      5-min Rain = 0
KSC1 192012Z 34015KT 12/M03 A3027 RMK A01 T01221032  RH  034%=      5-min Rain = 0
KSC1 192013Z 34015KT 12/M03 A3028 RMK A01 T01221033  RH  034%=      5-min Rain = 0
KSC1 192014Z 33015G20KT 12/M03 A3028 RMK A01 T01221031  RH  034%=      5-min Rain = 0
KSC1 192015Z 33012G18KT 12/M03 A3028 RMK A01 T01231033  RH  034%=      5-min Rain = 0
KSC1 192016Z 31011G16KT 12/M03 A3028 RMK A01 T01221031  RH  034%=      5-min Rain = 0
KSC1 192017Z 31014G21KT 12/M03 A3028 RMK A01 T01231032  RH  034%=      5-min Rain = 0
KSC1 192018Z 32014G19KT 12/M03 A3027 RMK A01 T01231033  RH  034%=      5-min Rain = 0
KSC1 192019Z 33012KT 12/M03 A3028 RMK A01 T01231033  RH  034%=      5-min Rain = 0
KSC1 192020Z 32008G13KT 12/M03 A3028 RMK A01 T01231034  RH  033%=      5-min Rain = 0
KSC1 192021Z 31011KT 12/M03 A3028 RMK A01 T01221033  RH  034%=      5-min Rain = 0
KSC1 192022Z 33012G18KT 12/M03 A3028 RMK A01 T01231031  RH  034%=      5-min Rain = 0
KSC1 192023Z 33014KT 12/M03 A3028 RMK A01 T01241031  RH  034%=      5-min Rain = 0
KSC1 192024Z 34012KT 12/M03 A3028 RMK A01 T01231032  RH  034%=      5-min Rain = 0
KSC1 192025Z 32014KT 12/M03 A3028 RMK A01 T01231032  RH  034%=      5-min Rain = 0
KSC1 192026Z 33015KT 12/M03 A3028 RMK A01 T01231034  RH  033%=      5-min Rain = 0
KSC1 192027Z 34014KT 12/M04 A3028 RMK A01 T01211035  RH  034%=      5-min Rain = 0
KSC1 192028Z 33014KT 12/M03 A3028 RMK A01 T01201034  RH  034%=      5-min Rain = 0
KSC1 192029Z 34010KT 12/M03 A3027 RMK A01 T01201033  RH  034%=      5-min Rain = 0
KSC1 192030Z 35012KT 12/M03 A3027 RMK A01 T01211031  RH  034%=      5-min Rain = 0
KSC1 192031Z 33010G15KT 12/M03 A3027 RMK A01 T01211032  RH  034%=      5-min Rain = 0
KSC1 192032Z 33014KT 12/M03 A3027 RMK A01 T01241029  RH  034%=      5-min Rain = 0
KSC1 192033Z 33013KT 13/M03 A3027 RMK A01 T01251028  RH  034%=      5-min Rain = 0
KSC1 192034Z 32016G21KT 13/M03 A3027 RMK A01 T01261030  RH  034%=      5-min Rain = 0
KSC1 192035Z 33016KT 13/M03 A3027 RMK A01 T01251033  RH  033%=      5-min Rain = 0
KSC1 192036Z 33017KT 12/M03 A3028 RMK A01 T01231034  RH  033%=      5-min Rain = 0
KSC1 192037Z 32012G18KT 12/M04 A3027 RMK A01 T01221035  RH  033%=      5-min Rain = 0
KSC1 192038Z 32014G20KT 12/M03 A3028 RMK A01 T01221032  RH  034%=      5-min Rain = 0
KSC1 192039Z 32014G22KT 12/M03 A3027 RMK A01 T01231034  RH  033%=      5-min Rain = 0
KSC1 192040Z 33012KT 12/M03 A3027 RMK A01 T01221034  RH  034%=      5-min Rain = 0
KSC1 192041Z 32011KT 12/M03 A3027 RMK A01 T01221034  RH  034%=      5-min Rain = 0
KSC1 192042Z 32010KT 12/M03 A3027 RMK A01 T01221032  RH  034%=      5-min Rain = 0
KSC1 192043Z 34010KT 12/M03 A3027 RMK A01 T01231029  RH  035%=      5-min Rain = 0
KSC1 192044Z 32013KT 13/M03 A3027 RMK A01 T01251030  RH  034%=      5-min Rain = 0
KSC1 192045Z 32015KT 13/M03 A3027 RMK A01 T01261030  RH  034%=      5-min Rain = 0
KSC1 192046Z 32015G23KT 13/M03 A3027 RMK A01 T01261032  RH  033%=      5-min Rain = 0
KSC1 192047Z 32016KT 13/M03 A3027 RMK A01 T01251033  RH  033%=      5-min Rain = 0
KSC1 192048Z 32015G21KT 12/M04 A3027 RMK A01 T01241035  RH  033%=      5-min Rain = 0
KSC1 192049Z 33014KT 12/M03 A3027 RMK A01 T01231034  RH  033%=      5-min Rain = 0
KSC1 192050Z 34013KT 12/M04 A3027 RMK A01 T01221036  RH  033%=      5-min Rain = 0
KSC1 192051Z 33014G19KT 12/M03 A3027 RMK A01 T01221033  RH  034%=      5-min Rain = 0
KSC1 192052Z 34016KT 12/M03 A3027 RMK A01 T01241033  RH  033%=      5-min Rain = 0
KSC1 192053Z 32016KT 12/M04 A3027 RMK A01 T01241035  RH  033%=      5-min Rain = 0
KSC1 192054Z 33013G18KT 12/M04 A3027 RMK A01 T01231035  RH  033%=      5-min Rain = 0
KSC1 192055Z 33014G19KT 12/M03 A3027 RMK A01 T01231034  RH  033%=      5-min Rain = 0
KSC1 192056Z 33011G16KT 12/M03 A3027 RMK A01 T01241032  RH  033%=      5-min Rain = 0
KSC1 192057Z 32012G17KT 13/M03 A3027 RMK A01 T01261030  RH  034%=      5-min Rain = 0
KSC1 192058Z 32012KT 13/M03 A3027 RMK A01 T01281031  RH  033%=      5-min Rain = 0
KSC1 192059Z 30013KT 13/M03 A3027 RMK A01 T01281031  RH  033%=      5-min Rain = 0
KSC1 192100Z 31012G17KT 13/M03 A3027 RMK A01 T01291031  RH  033%=      5-min Rain = 0
KSC1 192101Z 32012KT 13/M03 A3027 RMK A01 T01281032  RH  033%=      5-min Rain = 0
KSC1 192102Z 33012G17KT 13/M03 A3027 RMK A01 T01281031  RH  033%=      5-min Rain = 0
KSC1 192103Z 34014KT 13/M03 A3027 RMK A01 T01281032  RH  033%=      5-min Rain = 0
KSC1 192104Z 33015KT 13/M03 A3027 RMK A01 T01271033  RH  033%=      5-min Rain = 0
KSC1 192105Z 32015KT 13/M03 A3027 RMK A01 T01261033  RH  033%=      5-min Rain = 0
KSC1 192106Z 31010KT 13/M03 A3027 RMK A01 T01261034  RH  033%=      5-min Rain = 0
KSC1 192107Z 31009KT 13/M03 A3027 RMK A01 T01251033  RH  033%=      5-min Rain = 0
KSC1 192108Z 32008G14KT 13/M03 A3027 RMK A01 T01261031  RH  033%=      5-min Rain = 0
KSC1 192109Z 32011KT 13/M03 A3027 RMK A01 T01271032  RH  033%=      5-min Rain = 0
KSC1 192110Z 33012KT 13/M03 A3027 RMK A01 T01271030  RH  033%=      5-min Rain = 0
KSC1 192111Z 33013KT 13/M03 A3027 RMK A01 T01281031  RH  033%=      5-min Rain = 0
KSC1 192112Z 32012G18KT 13/M03 A3026 RMK A01 T01291031  RH  033%=      5-min Rain = 0
KSC1 192113Z 34009G14KT 13/M03 A3027 RMK A01 T01291030  RH  033%=      5-min Rain = 0
KSC1 192114Z 35011G16KT 13/M03 A3027 RMK A01 T01301029  RH  033%=      5-min Rain = 0
KSC1 192115Z 35010KT 13/M03 A3027 RMK A01 T01301029  RH  033%=      5-min Rain = 0
KSC1 192116Z 00010KT 13/M03 A3027 RMK A01 T01301029  RH  033%=      5-min Rain = 0
KSC1 192117Z 35011G19KT 13/M03 A3026 RMK A01 T01301030  RH  033%=      5-min Rain = 0
KSC1 192118Z 34016G22KT 13/M03 A3026 RMK A01 T01301030  RH  033%=      5-min Rain = 0
KSC1 192119Z 31015KT 13/M03 A3026 RMK A01 T01301030  RH  033%=      5-min Rain = 0
KSC1 192120Z 32016KT 13/M03 A3026 RMK A01 T01291032  RH  032%=      5-min Rain = 0
KSC1 192121Z 32011G16KT 13/M03 A3027 RMK A01 T01271034  RH  032%=      5-min Rain = 0
KSC1 192122Z 31012KT 13/M03 A3027 RMK A01 T01261033  RH  033%=      5-min Rain = 0
KSC1 192123Z 32012KT 13/M03 A3027 RMK A01 T01261032  RH  033%=      5-min Rain = 0
KSC1 192124Z 33013KT 13/M03 A3027 RMK A01 T01271031  RH  033%=      5-min Rain = 0
KSC1 192125Z 35011KT 13/M03 A3027 RMK A01 T01271031  RH  033%=      5-min Rain = 0
KSC1 192126Z 34010G16KT 13/M03 A3027 RMK A01 T01291028  RH  034%=      5-min Rain = 0
KSC1 192127Z 34011G16KT 13/M03 A3027 RMK A01 T01301029  RH  033%=      5-min Rain = 0
KSC1 192128Z 34011KT 13/M03 A3026 RMK A01 T01301029  RH  033%=      5-min Rain = 0
KSC1 192129Z 33011G16KT 13/M03 A3026 RMK A01 T01301029  RH  033%=      5-min Rain = 0
KSC1 192130Z 34012G17KT 13/M03 A3026 RMK A01 T01311027  RH  033%=      5-min Rain = 0
KSC1 192131Z 34012KT 13/M03 A3027 RMK A01 T01311028  RH  033%=      5-min Rain = 0
KSC1 192132Z 34010KT 13/M03 A3027 RMK A01 T01301031  RH  033%=      5-min Rain = 0
KSC1 192133Z 34008KT 13/M03 A3027 RMK A01 T01291029  RH  033%=      5-min Rain = 0
KSC1 192134Z 34010KT 13/M03 A3027 RMK A01 T01291030  RH  033%=      5-min Rain = 0
KSC1 192135Z 33010KT 13/M03 A3027 RMK A01 T01291030  RH  033%=      5-min Rain = 0
KSC1 192136Z 33011KT 13/M03 A3027 RMK A01 T01291028  RH  033%=      5-min Rain = 0
KSC1 192137Z 33009G14KT 13/M03 A3027 RMK A01 T01301028  RH  033%=      5-min Rain = 0
KSC1 192138Z 34009KT 13/M02 A3027 RMK A01 T01311024  RH  034%=      5-min Rain = 0
KSC1 192139Z 34010KT 13/M03 A3027 RMK A01 T01331025  RH  033%=      5-min Rain = 0
KSC1 192140Z 35009G15KT 13/M03 A3027 RMK A01 T01331026  RH  033%=      5-min Rain = 0
KSC1 192141Z 34011KT 13/M03 A3027 RMK A01 T01331026  RH  033%=      5-min Rain = 0
KSC1 192142Z 34011KT 13/M03 A3027 RMK A01 T01331027  RH  033%=      5-min Rain = 0
KSC1 192143Z 32010KT 13/M03 A3027 RMK A01 T01311029  RH  033%=      5-min Rain = 0
KSC1 192144Z 34008KT 13/M03 A3027 RMK A01 T01301030  RH  033%=      5-min Rain = 0
KSC1 192145Z 33011KT 13/M03 A3027 RMK A01 T01291030  RH  033%=      5-min Rain = 0
KSC1 192146Z 33010KT 13/M03 A3026 RMK A01 T01291031  RH  033%=      5-min Rain = 0
KSC1 192147Z 33010KT 13/M03 A3026 RMK A01 T01291029  RH  033%=      5-min Rain = 0
KSC1 192148Z 35013KT 13/M03 A3027 RMK A01 T01301029  RH  033%=      5-min Rain = 0
KSC1 192149Z 35009KT 13/M03 A3027 RMK A01 T01291031  RH  033%=      5-min Rain = 0
KSC1 192150Z 34008KT 13/M03 A3027 RMK A01 T01281032  RH  033%=      5-min Rain = 0
KSC1 192151Z 35008KT 13/M03 A3026 RMK A01 T01271031  RH  033%=      5-min Rain = 0
KSC1 192152Z 33009KT 13/M03 A3026 RMK A01 T01281029  RH  033%=      5-min Rain = 0
KSC1 192153Z 34010G15KT 13/M03 A3026 RMK A01 T01291028  RH  033%=      5-min Rain = 0
KSC1 192154Z 33014KT 13/M03 A3026 RMK A01 T01301029  RH  033%=      5-min Rain = 0
KSC1 192155Z 33012G17KT 13/M03 A3026 RMK A01 T01291031  RH  033%=      5-min Rain = 0
KSC1 192156Z 33013KT 13/M03 A3026 RMK A01 T01281030  RH  033%=      5-min Rain = 0
KSC1 192157Z 33011KT 13/M03 A3026 RMK A01 T01281031  RH  033%=      5-min Rain = 0
KSC1 192158Z 33013KT 13/M03 A3026 RMK A01 T01281030  RH  033%=      5-min Rain = 0
KSC1 192159Z 33012KT 13/M03 A3026 RMK A01 T01281031  RH  033%=      5-min Rain = 0
KSC1 192200Z 33010KT 13/M03 A3026 RMK A01 T01281031  RH  033%=      5-min Rain = 0
KSC1 192201Z 34008KT 13/M03 A3026 RMK A01 T01281029  RH  034%=      5-min Rain = 0
KSC1 192202Z 34009G14KT 13/M03 A3026 RMK A01 T01291028  RH  034%=      5-min Rain = 0
KSC1 192203Z 34012KT 13/M03 A3026 RMK A01 T01301028  RH  033%=      5-min Rain = 0
KSC1 192204Z 33011KT 13/M03 A3026 RMK A01 T01291030  RH  033%=      5-min Rain = 0
KSC1 192205Z 33009KT 13/M03 A3026 RMK A01 T01291028  RH  033%=      5-min Rain = 0
KSC1 192206Z 34010KT 13/M03 A3026 RMK A01 T01291027  RH  033%=      5-min Rain = 0
KSC1 192207Z 35011KT 13/M03 A3026 RMK A01 T01291029  RH  033%=      5-min Rain = 0
KSC1 192208Z 36009KT 13/M03 A3026 RMK A01 T01281029  RH  033%=      5-min Rain = 0
KSC1 192209Z 35009KT 13/M03 A3026 RMK A01 T01281030  RH  033%=      5-min Rain = 0
KSC1 192210Z 33008G13KT 13/M03 A3026 RMK A01 T01281028  RH  034%=      5-min Rain = 0
KSC1 192211Z 33009KT 13/M03 A3026 RMK A01 T01291025  RH  034%=      5-min Rain = 0
KSC1 192212Z 33012KT 13/M03 A3026 RMK A01 T01301027  RH  034%=      5-min Rain = 0
KSC1 192213Z 33010KT 13/M03 A3026 RMK A01 T01301030  RH  033%=      5-min Rain = 0
KSC1 192214Z 33009KT 13/M03 A3026 RMK A01 T01291027  RH  034%=      5-min Rain = 0
KSC1 192215Z 34011KT 13/M03 A3026 RMK A01 T01301026  RH  034%=      5-min Rain = 0
KSC1 192216Z 33009KT 13/M03 A3026 RMK A01 T01311025  RH  034%=      5-min Rain = 0
KSC1 192217Z 32008KT 13/M03 A3026 RMK A01 T01321026  RH  033%=      5-min Rain = 0
KSC1 192218Z 33009KT 13/M03 A3026 RMK A01 T01311029  RH  033%=      5-min Rain = 0
KSC1 192219Z 35010KT 13/M03 A3026 RMK A01 T01301027  RH  033%=      5-min Rain = 0
KSC1 192220Z 34010KT 13/M03 A3026 RMK A01 T01301027  RH  033%=      5-min Rain = 0
KSC1 192221Z 34009G15KT 13/M03 A3026 RMK A01 T01301026  RH  034%=      5-min Rain = 0
KSC1 192222Z 34012KT 13/M03 A3026 RMK A01 T01301028  RH  033%=      5-min Rain = 0
KSC1 192223Z 33009KT 13/M03 A3026 RMK A01 T01291028  RH  033%=      5-min Rain = 0
KSC1 192224Z 33011KT 13/M03 A3026 RMK A01 T01291029  RH  033%=      5-min Rain = 0
KSC1 192225Z 34011KT 13/M03 A3026 RMK A01 T01291029  RH  033%=      5-min Rain = 0
KSC1 192226Z 34012KT 13/M03 A3026 RMK A01 T01291028  RH  034%=      5-min Rain = 0
KSC1 192227Z 32010KT 13/M03 A3026 RMK A01 T01291028  RH  033%=      5-min Rain = 0
KSC1 192228Z 33013KT 13/M03 A3026 RMK A01 T01291027  RH  034%=      5-min Rain = 0
KSC1 192229Z 34013G18KT 13/M03 A3027 RMK A01 T01291028  RH  033%=      5-min Rain = 0
KSC1 192230Z 34012KT 13/M03 A3027 RMK A01 T01281027  RH  034%=      5-min Rain = 0
KSC1 192231Z 34010KT 13/M03 A3027 RMK A01 T01281027  RH  034%=      5-min Rain = 0
KSC1 192232Z 34012KT 13/M03 A3027 RMK A01 T01291028  RH  034%=      5-min Rain = 0
KSC1 192233Z 34011KT 13/M03 A3027 RMK A01 T01281029  RH  033%=      5-min Rain = 0
KSC1 192234Z 33010KT 13/M03 A3027 RMK A01 T01281030  RH  033%=      5-min Rain = 0
KSC1 192235Z 33007KT 13/M03 A3027 RMK A01 T01271030  RH  034%=      5-min Rain = 0
KSC1 192236Z 32008KT 13/M03 A3027 RMK A01 T01271028  RH  034%=      5-min Rain = 0
KSC1 192237Z 33007KT 13/M03 A3027 RMK A01 T01281028  RH  034%=      5-min Rain = 0
KSC1 192238Z 33006KT 13/M03 A3027 RMK A01 T01281027  RH  034%=      5-min Rain = 0
KSC1 192239Z 32006KT 13/M03 A3027 RMK A01 T01291025  RH  034%=      5-min Rain = 0
KSC1 192240Z 34009KT 13/M03 A3027 RMK A01 T01301025  RH  034%=      5-min Rain = 0
KSC1 192241Z 34010KT 13/M03 A3027 RMK A01 T01301027  RH  034%=      5-min Rain = 0
KSC1 192242Z 34012KT 13/M03 A3027 RMK A01 T01301027  RH  034%=      5-min Rain = 0
KSC1 192243Z 33011KT 13/M03 A3027 RMK A01 T01301029  RH  033%=      5-min Rain = 0
KSC1 192244Z 33010KT 13/M03 A3027 RMK A01 T01291029  RH  033%=      5-min Rain = 0
KSC1 192245Z 33010KT 13/M03 A3027 RMK A01 T01291028  RH  033%=      5-min Rain = 0
KSC1 192246Z 33011KT 13/M03 A3027 RMK A01 T01301027  RH  034%=      5-min Rain = 0
KSC1 192247Z 33012KT 13/M03 A3027 RMK A01 T01301027  RH  033%=      5-min Rain = 0
KSC1 192248Z 34009KT 13/M03 A3027 RMK A01 T01301028  RH  033%=      5-min Rain = 0
KSC1 192249Z 34008KT 13/M03 A3027 RMK A01 T01301027  RH  034%=      5-min Rain = 0
KSC1 192250Z 33009G14KT 13/M03 A3027 RMK A01 T01311027  RH  033%=      5-min Rain = 0
KSC1 192251Z 34012KT 13/M03 A3027 RMK A01 T01311028  RH  033%=      5-min Rain = 0
KSC1 192252Z 33010KT 13/M03 A3027 RMK A01 T01311030  RH  033%=      5-min Rain = 0
KSC1 192253Z 33008KT 13/M03 A3027 RMK A01 T01311027  RH  033%=      5-min Rain = 0
KSC1 192254Z 33011KT 13/M03 A3027 RMK A01 T01311025  RH  034%=      5-min Rain = 0
KSC1 192255Z 34013KT 13/M03 A3026 RMK A01 T01321027  RH  033%=      5-min Rain = 0
KSC1 192256Z 33009KT 13/M03 A3026 RMK A01 T01311027  RH  033%=      5-min Rain = 0
KSC1 192257Z 33008KT 13/M03 A3026 RMK A01 T01311027  RH  033%=      5-min Rain = 0
KSC1 192258Z 34009KT 13/M03 A3027 RMK A01 T01311027  RH  033%=      5-min Rain = 0
KSC1 192259Z 33007KT 13/M03 A3027 RMK A01 T01311028  RH  033%=      5-min Rain = 0
KSC1 192300Z 33008G13KT 13/M03 A3026 RMK A01 T01311026  RH  033%=      5-min Rain = 0
KSC1 192301Z 33009G16KT 13/M03 A3026 RMK A01 T01321026  RH  033%=      5-min Rain = 0
KSC1 192302Z 34012KT 13/M03 A3026 RMK A01 T01311029  RH  033%=      5-min Rain = 0
KSC1 192303Z 33010KT 13/M03 A3026 RMK A01 T01311030  RH  033%=      5-min Rain = 0
KSC1 192304Z 33011KT 13/M03 A3026 RMK A01 T01301030  RH  033%=      5-min Rain = 0
KSC1 192305Z 33010KT 13/M03 A3026 RMK A01 T01301030  RH  033%=      5-min Rain = 0
KSC1 192306Z 34009KT 13/M03 A3026 RMK A01 T01301030  RH  033%=      5-min Rain = 0
KSC1 192307Z 34009KT 13/M03 A3026 RMK A01 T01301029  RH  033%=      5-min Rain = 0
KSC1 192308Z 34009KT 13/M03 A3027 RMK A01 T01301029  RH  033%=      5-min Rain = 0
KSC1 192309Z 34011KT 13/M03 A3027 RMK A01 T01301029  RH  033%=      5-min Rain = 0
KSC1 192310Z 34012KT 13/M03 A3027 RMK A01 T01301030  RH  033%=      5-min Rain = 0
KSC1 192311Z 33011KT 13/M03 A3026 RMK A01 T01301030  RH  033%=      5-min Rain = 0
KSC1 192312Z 33011KT 13/M03 A3026 RMK A01 T01301030  RH  033%=      5-min Rain = 0
KSC1 192313Z 33012KT 13/M03 A3026 RMK A01 T01291031  RH  033%=      5-min Rain = 0
KSC1 192314Z 33012KT 13/M03 A3027 RMK A01 T01291032  RH  033%=      5-min Rain = 0
KSC1 192315Z 33011KT 13/M03 A3026 RMK A01 T01291031  RH  033%=      5-min Rain = 0
KSC1 192316Z 34010KT 13/M03 A3027 RMK A01 T01291031  RH  033%=      5-min Rain = 0
KSC1 192317Z 33012KT 13/M03 A3027 RMK A01 T01291030  RH  033%=      5-min Rain = 0
KSC1 192318Z 34010KT 13/M03 A3027 RMK A01 T01281031  RH  033%=      5-min Rain = 0
KSC1 192319Z 34011KT 13/M03 A3027 RMK A01 T01281031  RH  033%=      5-min Rain = 0
KSC1 192320Z 34013KT 13/M03 A3027 RMK A01 T01281033  RH  033%=      5-min Rain = 0
KSC1 192321Z 34010KT 13/M03 A3027 RMK A01 T01281033  RH  032%=      5-min Rain = 0
KSC1 192322Z 33010KT 13/M03 A3027 RMK A01 T01281032  RH  033%=      5-min Rain = 0
KSC1 192323Z 33010KT 13/M03 A3027 RMK A01 T01271032  RH  033%=      5-min Rain = 0
KSC1 192324Z 33011KT 13/M03 A3027 RMK A01 T01271032  RH  033%=      5-min Rain = 0
KSC1 192325Z 34010KT 13/M03 A3027 RMK A01 T01271032  RH  033%=      5-min Rain = 0
KSC1 192326Z 35009KT 13/M03 A3027 RMK A01 T01261031  RH  033%=      5-min Rain = 0
KSC1 192327Z 34010KT 13/M03 A3027 RMK A01 T01271031  RH  033%=      5-min Rain = 0
KSC1 192328Z 35012KT 13/M03 A3027 RMK A01 T01261032  RH  033%=      5-min Rain = 0
KSC1 192329Z 34009KT 13/M03 A3027 RMK A01 T01261032  RH  033%=      5-min Rain = 0
KSC1 192330Z 34008KT 13/M03 A3027 RMK A01 T01261032  RH  033%=      5-min Rain = 0
KSC1 192331Z 33007KT 13/M03 A3027 RMK A01 T01251031  RH  034%=      5-min Rain = 0
KSC1 192332Z 34007KT 13/M03 A3027 RMK A01 T01251031  RH  034%=      5-min Rain = 0
KSC1 192333Z 34010KT 12/M03 A3027 RMK A01 T01241031  RH  034%=      5-min Rain = 0
KSC1 192334Z 34008KT 12/M03 A3027 RMK A01 T01241031  RH  034%=      5-min Rain = 0
KSC1 192335Z 34008KT 12/M03 A3027 RMK A01 T01241031  RH  034%=      5-min Rain = 0
KSC1 192336Z 34008KT 12/M03 A3027 RMK A01 T01241031  RH  034%=      5-min Rain = 0
KSC1 192337Z 34007KT 12/M03 A3027 RMK A01 T01231030  RH  034%=      5-min Rain = 0
KSC1 192338Z 34009KT 12/M03 A3027 RMK A01 T01221030  RH  034%=      5-min Rain = 0
KSC1 192339Z 34007KT 12/M03 A3027 RMK A01 T01221029  RH  035%=      5-min Rain = 0
KSC1 192340Z 34005KT 12/M03 A3027 RMK A01 T01221028  RH  035%=      5-min Rain = 0
KSC1 192341Z 34005KT 12/M03 A3027 RMK A01 T01211028  RH  035%=      5-min Rain = 0
KSC1 192342Z 35004KT 12/M03 A3027 RMK A01 T01211027  RH  036%=      5-min Rain = 0
KSC1 192343Z 35005KT 12/M03 A3027 RMK A01 T01191027  RH  036%=      5-min Rain = 0
KSC1 192344Z 36005G10KT 12/M03 A3027 RMK A01 T01191026  RH  036%=      5-min Rain = 0
KSC1 192345Z 34006KT 12/M03 A3027 RMK A01 T01191027  RH  036%=      5-min Rain = 0
KSC1 192346Z 34007KT 12/M03 A3027 RMK A01 T01191027  RH  036%=      5-min Rain = 0
KSC1 192347Z 33007KT 12/M03 A3027 RMK A01 T01181028  RH  036%=      5-min Rain = 0
KSC1 192348Z 33006KT 12/M03 A3027 RMK A01 T01181028  RH  036%=      5-min Rain = 0
KSC1 192349Z 33007KT 12/M03 A3027 RMK A01 T01171029  RH  036%=      5-min Rain = 0
KSC1 192350Z 33006KT 12/M03 A3027 RMK A01 T01161029  RH  036%=      5-min Rain = 0
KSC1 192351Z 34007KT 12/M03 A3027 RMK A01 T01151029  RH  036%=      5-min Rain = 0
KSC1 192352Z 34006KT 12/M03 A3027 RMK A01 T01151030  RH  036%=      5-min Rain = 0
KSC1 192353Z 33005KT 12/M03 A3027 RMK A01 T01151029  RH  036%=      5-min Rain = 0
KSC1 192354Z 33005KT 11/M03 A3027 RMK A01 T01141030  RH  037%=      5-min Rain = 0
KSC1 192355Z 34005KT 11/M03 A3027 RMK A01 T01131030  RH  037%=      5-min Rain = 0
KSC1 192356Z 34005KT 11/M03 A3027 RMK A01 T01121029  RH  037%=      5-min Rain = 0
KSC1 192357Z 34006KT 11/M03 A3027 RMK A01 T01101029  RH  037%=      5-min Rain = 0
KSC1 192358Z 34005KT 11/M03 A3027 RMK A01 T01101030  RH  037%=      5-min Rain = 0
KSC1 192359Z 34005KT 11/M03 A3027 RMK A01 T01101029  RH  038%=      5-min Rain = 0
KSC1 200000Z 34005KT 11/M03 A3027 RMK A01 T01081030  RH  038%=      5-min Rain = 0
KSC1 200001Z 34005KT 11/M03 A3027 RMK A01 T01081030  RH  038%=      5-min Rain = 0
KSC1 200002Z 34006KT 11/M03 A3027 RMK A01 T01071029  RH  038%=      5-min Rain = 0
KSC1 200003Z 35006KT 11/M03 A3027 RMK A01 T01061030  RH  038%=      5-min Rain = 0
KSC1 200004Z 34005KT 11/M03 A3027 RMK A01 T01061029  RH  038%=      5-min Rain = 0
KSC1 200005Z 35005KT 11/M03 A3027 RMK A01 T01061029  RH  039%=      5-min Rain = 0
KSC1 200006Z 35005KT 11/M03 A3027 RMK A01 T01051030  RH  039%=      5-min Rain = 0
KSC1 200007Z 35004KT 10/M03 A3027 RMK A01 T01041030  RH  039%=      5-min Rain = 0
KSC1 200008Z 35004KT 10/M03 A3027 RMK A01 T01041030  RH  039%=      5-min Rain = 0
KSC1 200009Z 35003KT 10/M03 A3027 RMK A01 T01031030  RH  039%=      5-min Rain = 0
KSC1 200010Z 34003KT 10/M03 A3027 RMK A01 T01031029  RH  039%=      5-min Rain = 0
KSC1 200011Z 34003KT 10/M03 A3027 RMK A01 T01021030  RH  040%=      5-min Rain = 0
KSC1 200012Z 34003KT 10/M03 A3027 RMK A01 T01011030  RH  040%=      5-min Rain = 0
KSC1 200013Z 34003KT 10/M03 A3027 RMK A01 T01011030  RH  040%=      5-min Rain = 0
KSC1 200014Z 34003KT 10/M03 A3027 RMK A01 T01001030  RH  040%=      5-min Rain = 0
KSC1 200015Z 34003KT 10/M03 A3027 RMK A01 T00991030  RH  040%=      5-min Rain = 0
KSC1 200016Z 35003KT 10/M03 A3027 RMK A01 T00981030  RH  040%=      5-min Rain = 0
KSC1 200017Z 01003KT 10/M03 A3027 RMK A01 T00981030  RH  041%=      5-min Rain = 0
KSC1 200018Z 01003KT 10/M03 A3027 RMK A01 T00971030  RH  041%=      5-min Rain = 0
KSC1 200019Z 00003KT 10/M03 A3027 RMK A01 T00971030  RH  041%=      5-min Rain = 0
KSC1 200020Z 36003KT 10/M03 A3027 RMK A01 T00961030  RH  041%=      5-min Rain = 0
KSC1 200021Z 00003KT 10/M03 A3027 RMK A01 T00961030  RH  041%=      5-min Rain = 0
KSC1 200022Z 00003KT 10/M03 A3027 RMK A01 T00951030  RH  041%=      5-min Rain = 0
KSC1 200023Z 01003KT 10/M03 A3027 RMK A01 T00951030  RH  041%=      5-min Rain = 0
KSC1 200024Z 01003KT 09/M03 A3027 RMK A01 T00941030  RH  042%=      5-min Rain = 0
KSC1 200025Z 01003KT 09/M03 A3027 RMK A01 T00931030  RH  042%=      5-min Rain = 0
KSC1 200026Z 01003KT 09/M03 A3027 RMK A01 T00911031  RH  042%=      5-min Rain = 0
KSC1 200027Z 01003KT 09/M03 A3027 RMK A01 T00901031  RH  043%=      5-min Rain = 0
KSC1 200028Z 01003KT 09/M03 A3027 RMK A01 T00881031  RH  043%=      5-min Rain = 0
KSC1 200029Z 02003KT 09/M03 A3027 RMK A01 T00871031  RH  043%=      5-min Rain = 0
KSC1 200030Z 02003KT 09/M03 A3027 RMK A01 T00851031  RH  044%=      5-min Rain = 0
KSC1 200031Z 02003KT 08/M03 A3027 RMK A01 T00841031  RH  044%=      5-min Rain = 0
KSC1 200032Z 01003KT 08/M03 A3027 RMK A01 T00831030  RH  045%=      5-min Rain = 0
KSC1 200033Z 01002KT 08/M03 A3027 RMK A01 T00811031  RH  045%=      5-min Rain = 0
KSC1 200034Z 01002KT 08/M03 A3027 RMK A01 T00801031  RH  045%=      5-min Rain = 0
KSC1 200035Z 01002KT 08/M03 A3027 RMK A01 T00791031  RH  046%=      5-min Rain = 0
KSC1 200036Z 01002KT 08/M03 A3027 RMK A01 T00781031  RH  046%=      5-min Rain = 0
KSC1 200037Z 01001KT 08/M03 A3027 RMK A01 T00781031  RH  046%=      5-min Rain = 0
KSC1 200038Z 02001KT 08/M03 A3027 RMK A01 T00771032  RH  046%=      5-min Rain = 0
KSC1 200039Z 03002KT 08/M03 A3027 RMK A01 T00761032  RH  046%=      5-min Rain = 0
KSC1 200040Z 02001KT 08/M03 A3027 RMK A01 T00761031  RH  047%=      5-min Rain = 0
KSC1 200041Z 02002KT 07/M03 A3027 RMK A01 T00721031  RH  048%=      5-min Rain = 0
KSC1 200042Z 02002KT 07/M03 A3027 RMK A01 T00701033  RH  048%=      5-min Rain = 0
KSC1 200043Z 01001KT 07/M03 A3027 RMK A01 T00701032  RH  048%=      5-min Rain = 0
KSC1 200044Z 00001KT 07/M03 A3027 RMK A01 T00691032  RH  048%=      5-min Rain = 0
KSC1 200045Z 36002KT 07/M03 A3027 RMK A01 T00671033  RH  049%=      5-min Rain = 0
KSC1 200046Z 36002KT 07/M03 A3027 RMK A01 T00661031  RH  050%=      5-min Rain = 0
KSC1 200047Z 36002KT 06/M03 A3027 RMK A01 T00641031  RH  051%=      5-min Rain = 0
KSC1 200048Z 36003KT 06/M03 A3027 RMK A01 T00621031  RH  051%=      5-min Rain = 0
KSC1 200049Z 36003KT 06/M03 A3027 RMK A01 T00631029  RH  052%=      5-min Rain = 0
KSC1 200050Z 35003KT 07/M03 A3027 RMK A01 T00651028  RH  051%=      5-min Rain = 0
KSC1 200051Z 35003KT 07/M03 A3028 RMK A01 T00671028  RH  051%=      5-min Rain = 0
KSC1 200052Z 34003KT 07/M03 A3028 RMK A01 T00681027  RH  051%=      5-min Rain = 0
KSC1 200053Z 34003KT 07/M03 A3028 RMK A01 T00691028  RH  050%=      5-min Rain = 0
KSC1 200054Z 34003KT 07/M03 A3028 RMK A01 T00701028  RH  050%=      5-min Rain = 0
KSC1 200055Z 34003KT 07/M03 A3028 RMK A01 T00711027  RH  050%=      5-min Rain = 0
KSC1 200056Z 33003KT 07/M03 A3028 RMK A01 T00711028  RH  050%=      5-min Rain = 0
KSC1 200057Z 31002KT 07/M03 A3028 RMK A01 T00701028  RH  050%=      5-min Rain = 0
KSC1 200058Z 31002KT 07/M03 A3028 RMK A01 T00691029  RH  050%=      5-min Rain = 0
KSC1 200059Z 30002KT 07/M03 A3028 RMK A01 T00671029  RH  050%=      5-min Rain = 0
KSC1 200100Z 30001KT 06/M03 A3028 RMK A01 T00641029  RH  051%=      5-min Rain = 0
KSC1 200101Z 29001KT 06/M03 A3028 RMK A01 T00581031  RH  053%=      5-min Rain = 0
KSC1 200102Z 28001KT 05/M03 A3028 RMK A01 T00521032  RH  055%=      5-min Rain = 0
KSC1 200103Z 27001KT 05/M03 A3028 RMK A01 T00481031  RH  057%=      5-min Rain = 0
KSC1 200104Z 25001KT 04/M03 A3028 RMK A01 T00441030  RH  058%=      5-min Rain = 0
KSC1 200105Z 25001KT 04/M03 A3028 RMK A01 T00411030  RH  060%=      5-min Rain = 0
KSC1 200106Z 25001KT 04/M03 A3028 RMK A01 T00411029  RH  060%=      5-min Rain = 0
KSC1 200107Z 24001KT 04/M03 A3028 RMK A01 T00411029  RH  060%=      5-min Rain = 0
KSC1 200108Z 24001KT 04/M03 A3028 RMK A01 T00411030  RH  060%=      5-min Rain = 0
KSC1 200109Z 24001KT 04/M03 A3028 RMK A01 T00421030  RH  059%=      5-min Rain = 0
KSC1 200110Z 25001KT 04/M03 A3028 RMK A01 T00421030  RH  060%=      5-min Rain = 0
KSC1 200111Z 24001KT 04/M03 A3028 RMK A01 T00421030  RH  060%=      5-min Rain = 0
KSC1 200112Z 23001KT 04/M03 A3028 RMK A01 T00411030  RH  060%=      5-min Rain = 0
KSC1 200113Z 22002KT 04/M03 A3028 RMK A01 T00401031  RH  060%=      5-min Rain = 0
KSC1 200114Z 23002KT 04/M03 A3028 RMK A01 T00381031  RH  061%=      5-min Rain = 0
KSC1 200115Z 24002KT 04/M03 A3028 RMK A01 T00351031  RH  062%=      5-min Rain = 0
KSC1 200116Z 24001KT 03/M03 A3028 RMK A01 T00331030  RH  063%=      5-min Rain = 0
KSC1 200117Z 24002KT 03/M03 A3028 RMK A01 T00321030  RH  064%=      5-min Rain = 0
KSC1 200118Z 25002KT 03/M03 A3028 RMK A01 T00311031  RH  064%=      5-min Rain = 0
KSC1 200119Z 25002KT 03/M03 A3028 RMK A01 T00311030  RH  064%=      5-min Rain = 0
KSC1 200120Z 26002KT 03/M03 A3028 RMK A01 T00301030  RH  065%=      5-min Rain = 0
KSC1 200121Z 28001KT 03/M03 A3028 RMK A01 T00281030  RH  066%=      5-min Rain = 0
KSC1 200122Z 28002KT 03/M03 A3028 RMK A01 T00261030  RH  066%=      5-min Rain = 0
KSC1 200123Z 28002KT 03/M03 A3028 RMK A01 T00261030  RH  066%=      5-min Rain = 0
KSC1 200124Z 30002KT 03/M03 A3028 RMK A01 T00271030  RH  066%=      5-min Rain = 0
KSC1 200125Z 31002KT 03/M03 A3028 RMK A01 T00291029  RH  066%=      5-min Rain = 0
KSC1 200126Z 32002KT 03/M03 A3028 RMK A01 T00301029  RH  065%=      5-min Rain = 0
KSC1 200127Z 32002KT 03/M03 A3028 RMK A01 T00311028  RH  065%=      5-min Rain = 0
KSC1 200128Z 32002KT 03/M03 A3028 RMK A01 T00311028  RH  065%=      5-min Rain = 0
KSC1 200129Z 32002KT 03/M03 A3028 RMK A01 T00321027  RH  065%=      5-min Rain = 0
KSC1 200130Z 32002KT 03/M03 A3028 RMK A01 T00331026  RH  065%=      5-min Rain = 0
KSC1 200131Z 33002KT 03/M03 A3028 RMK A01 T00341025  RH  065%=      5-min Rain = 0
KSC1 200132Z 33003KT 04/M02 A3028 RMK A01 T00351023  RH  066%=      5-min Rain = 0
KSC1 200133Z 33003KT 04/M02 A3028 RMK A01 T00351024  RH  065%=      5-min Rain = 0
KSC1 200134Z 33003KT 04/M02 A3028 RMK A01 T00351024  RH  065%=      5-min Rain = 0
KSC1 200135Z 34003KT 03/M03 A3028 RMK A01 T00331025  RH  066%=      5-min Rain = 0
KSC1 200136Z 34003KT 03/M03 A3028 RMK A01 T00321025  RH  066%=      5-min Rain = 0
KSC1 200137Z 34003KT 03/M03 A3028 RMK A01 T00311026  RH  066%=      5-min Rain = 0
KSC1 200138Z 35003KT 03/M03 A3028 RMK A01 T00291026  RH  067%=      5-min Rain = 0
KSC1 200139Z 36003KT 03/M03 A3028 RMK A01 T00281026  RH  067%=      5-min Rain = 0
KSC1 200140Z 34003KT 03/M03 A3028 RMK A01 T00271027  RH  067%=      5-min Rain = 0
KSC1 200141Z 34003KT 03/M03 A3028 RMK A01 T00271027  RH  068%=      5-min Rain = 0
KSC1 200142Z 33003KT 03/M03 A3029 RMK A01 T00281026  RH  067%=      5-min Rain = 0
KSC1 200143Z 33003KT 03/M03 A3029 RMK A01 T00321025  RH  066%=      5-min Rain = 0
KSC1 200144Z 32003KT 03/M03 A3029 RMK A01 T00341025  RH  065%=      5-min Rain = 0
KSC1 200145Z 33003KT 04/M03 A3029 RMK A01 T00351026  RH  064%=      5-min Rain = 0
KSC1 200146Z 33003KT 03/M03 A3029 RMK A01 T00341028  RH  064%=      5-min Rain = 0
KSC1 200147Z 33003KT 03/M03 A3029 RMK A01 T00301031  RH  064%=      5-min Rain = 0
KSC1 200148Z 32003KT 03/M03 A3029 RMK A01 T00271031  RH  065%=      5-min Rain = 0
KSC1 200149Z 32003KT 03/M03 A3029 RMK A01 T00251032  RH  066%=      5-min Rain = 0
KSC1 200150Z 34003KT 02/M03 A3029 RMK A01 T00241031  RH  067%=      5-min Rain = 0
KSC1 200151Z 34003KT 02/M03 A3029 RMK A01 T00241030  RH  068%=      5-min Rain = 0
KSC1 200152Z 34003KT 02/M03 A303 RMK A01 T00241030  RH  067%=      5-min Rain = 0
KSC1 200153Z 34003KT 02/M03 A303 RMK A01 T00231031  RH  068%=      5-min Rain = 0
KSC1 200154Z 34003KT 02/M03 A303 RMK A01 T00211032  RH  068%=      5-min Rain = 0
KSC1 200155Z 33002KT 02/M03 A303 RMK A01 T00201032  RH  068%=      5-min Rain = 0
KSC1 200156Z 32001KT 02/M03 A303 RMK A01 T00181033  RH  069%=      5-min Rain = 0
KSC1 200157Z 32001KT 02/M03 A303 RMK A01 T00161032  RH  070%=      5-min Rain = 0
KSC1 200158Z 32001KT 02/M03 A303 RMK A01 T00151034  RH  070%=      5-min Rain = 0
KSC1 200159Z 31000KT 02/M03 A303 RMK A01 T00161032  RH  070%=      5-min Rain = 0
KSC1 200200Z 00000KT 02/M03 A303 RMK A01 T00171030  RH  071%=      5-min Rain = 0
KSC1 200201Z 00000KT 02/M03 A303 RMK A01 T00191029  RH  071%=      5-min Rain = 0
KSC1 200202Z 00000KT 02/M03 A303 RMK A01 T00191029  RH  070%=      5-min Rain = 0
KSC1 200203Z 00000KT 02/M03 A303 RMK A01 T00191030  RH  070%=      5-min Rain = 0
KSC1 200204Z 00000KT 02/M03 A303 RMK A01 T00171032  RH  070%=      5-min Rain = 0
KSC1 200205Z 23001KT 02/M03 A303 RMK A01 T00161033  RH  070%=      5-min Rain = 0
KSC1 200206Z 23001KT 02/M03 A303 RMK A01 T00171033  RH  070%=      5-min Rain = 0
KSC1 200207Z 22001KT 02/M03 A303 RMK A01 T00171032  RH  070%=      5-min Rain = 0
KSC1 200208Z 22001KT 02/M03 A303 RMK A01 T00161032  RH  070%=      5-min Rain = 0
KSC1 200209Z 23002KT 02/M03 A303 RMK A01 T00171031  RH  071%=      5-min Rain = 0
KSC1 200210Z 23002KT 02/M03 A303 RMK A01 T00171031  RH  070%=      5-min Rain = 0
KSC1 200211Z 23003KT 02/M03 A303 RMK A01 T00181030  RH  070%=      5-min Rain = 0
KSC1 200212Z 22003KT 02/M03 A303 RMK A01 T00191030  RH  070%=      5-min Rain = 0
KSC1 200213Z 23003KT 02/M03 A303 RMK A01 T00171032  RH  070%=      5-min Rain = 0
KSC1 200214Z 23003KT 02/M03 A303 RMK A01 T00171032  RH  070%=      5-min Rain = 0
KSC1 200215Z 23003KT 02/M03 A303 RMK A01 T00171031  RH  070%=      5-min Rain = 0
KSC1 200216Z 23003KT 02/M03 A3031 RMK A01 T00171031  RH  071%=      5-min Rain = 0
KSC1 200217Z 23003KT 02/M03 A303 RMK A01 T00171030  RH  071%=      5-min Rain = 0
KSC1 200218Z 23003KT 02/M03 A303 RMK A01 T00171030  RH  071%=      5-min Rain = 0
KSC1 200219Z 23003KT 02/M03 A303 RMK A01 T00171030  RH  071%=      5-min Rain = 0
KSC1 200220Z 23003KT 02/M03 A303 RMK A01 T00161032  RH  070%=      5-min Rain = 0
KSC1 200221Z 23003KT 02/M03 A303 RMK A01 T00161031  RH  071%=      5-min Rain = 0
KSC1 200222Z 24003KT 02/M03 A303 RMK A01 T00151031  RH  071%=      5-min Rain = 0
KSC1 200223Z 24002KT 02/M03 A303 RMK A01 T00161030  RH  072%=      5-min Rain = 0
KSC1 200224Z 24002KT 02/M03 A303 RMK A01 T00161030  RH  072%=      5-min Rain = 0
KSC1 200225Z 25002KT 02/M03 A3031 RMK A01 T00181028  RH  072%=      5-min Rain = 0
KSC1 200226Z 24002KT 02/M03 A3031 RMK A01 T00181029  RH  071%=      5-min Rain = 0
KSC1 200227Z 24001KT 02/M03 A3031 RMK A01 T00181029  RH  071%=      5-min Rain = 0
KSC1 200228Z 26001KT 02/M03 A3031 RMK A01 T00161028  RH  072%=      5-min Rain = 0
KSC1 200229Z 26002KT 02/M03 A3031 RMK A01 T00151027  RH  073%=      5-min Rain = 0
KSC1 200230Z 26002KT 01/M03 A3031 RMK A01 T00131029  RH  073%=      5-min Rain = 0
KSC1 200231Z 26001KT 01/M03 A3031 RMK A01 T00111031  RH  074%=      5-min Rain = 0
KSC1 200232Z 26001KT 01/M03 A3031 RMK A01 T00101031  RH  074%=      5-min Rain = 0
KSC1 200233Z 27001KT 01/M03 A3031 RMK A01 T00101031  RH  074%=      5-min Rain = 0
KSC1 200234Z 27000KT 01/M03 A3031 RMK A01 T00091031  RH  074%=      5-min Rain = 0
KSC1 200235Z 00000KT 01/M03 A3031 RMK A01 T00081032  RH  075%=      5-min Rain = 0
KSC1 200236Z 00000KT 01/M03 A3031 RMK A01 T00071032  RH  075%=      5-min Rain = 0
KSC1 200237Z 00000KT 01/M03 A3031 RMK A01 T00061034  RH  075%=      5-min Rain = 0
KSC1 200238Z 00000KT 01/M03 A3031 RMK A01 T00061033  RH  075%=      5-min Rain = 0
KSC1 200239Z 00000KT 01/M03 A3031 RMK A01 T00051033  RH  075%=      5-min Rain = 0
KSC1 200240Z 21000KT 01/M03 A3031 RMK A01 T00061032  RH  076%=      5-min Rain = 0
KSC1 200241Z 18001KT 01/M03 A3031 RMK A01 T00071031  RH  076%=      5-min Rain = 0
KSC1 200242Z 17002KT 01/M03 A3031 RMK A01 T00081031  RH  075%=      5-min Rain = 0
KSC1 200243Z 17001KT 01/M03 A3031 RMK A01 T00081033  RH  074%=      5-min Rain = 0
KSC1 200244Z 16001KT 01/M04 A3031 RMK A01 T00071035  RH  074%=      5-min Rain = 0
KSC1 200245Z 15002KT 01/M04 A3031 RMK A01 T00061035  RH  074%=      5-min Rain = 0
KSC1 200246Z 15002KT 01/M03 A303 RMK A01 T00061034  RH  075%=      5-min Rain = 0
KSC1 200247Z 15002KT 01/M03 A303 RMK A01 T00061034  RH  075%=      5-min Rain = 0
KSC1 200248Z 15002KT 01/M03 A303 RMK A01 T00071031  RH  076%=      5-min Rain = 0
KSC1 200249Z 15002KT 01/M03 A303 RMK A01 T00091029  RH  076%=      5-min Rain = 0
KSC1 200250Z 14003KT 01/M03 A303 RMK A01 T00091032  RH  074%=      5-min Rain = 0
KSC1 200251Z 13002KT 01/M04 A303 RMK A01 T00051035  RH  074%=      5-min Rain = 0
KSC1 200252Z 12002KT 00/M04 A303 RMK A01 T00041035  RH  075%=      5-min Rain = 0
KSC1 200253Z 12002KT 00/M03 A303 RMK A01 T00041033  RH  077%=      5-min Rain = 0
KSC1 200254Z 12001KT 01/M03 A303 RMK A01 T00051032  RH  077%=      5-min Rain = 0
KSC1 200255Z 12001KT 01/M03 A303 RMK A01 T00051032  RH  076%=      5-min Rain = 0
KSC1 200256Z 11002KT 01/M04 A303 RMK A01 T00051035  RH  075%=      5-min Rain = 0
KSC1 200257Z 10002KT 00/M04 A303 RMK A01 T00021037  RH  075%=      5-min Rain = 0
KSC1 200258Z 10001KT 00/M04 A3029 RMK A01 T00011036  RH  076%=      5-min Rain = 0
KSC1 200259Z 10001KT 00/M03 A3029 RMK A01 T00011034  RH  077%=      5-min Rain = 0
KSC1 200300Z 09002KT 00/M04 A3029 RMK A01 T00021035  RH  077%=      5-min Rain = 0
KSC1 200301Z 11001KT 00/M04 A3029 RMK A01 T00011035  RH  077%=      5-min Rain = 0
KSC1 200302Z 11001KT 00/04 A303 RMK A01 T00000-36  RH  077%=      5-min Rain = 0
KSC1 200303Z 11001KT M00/M04 A303 RMK A01 T10011035  RH  078%=      5-min Rain = 0
KSC1 200304Z 12002KT M00/M03 A303 RMK A01 T10021034  RH  079%=      5-min Rain = 0
KSC1 200305Z 13002KT M00/M04 A303 RMK A01 T10021035  RH  079%=      5-min Rain = 0
KSC1 200306Z 14002KT M00/M04 A303 RMK A01 T10031036  RH  078%=      5-min Rain = 0
KSC1 200307Z 15003KT M00/M04 A303 RMK A01 T10041036  RH  079%=      5-min Rain = 0
KSC1 200308Z 16002KT M01/M04 A303 RMK A01 T10061038  RH  079%=      5-min Rain = 0
KSC1 200309Z 17002KT M01/M04 A303 RMK A01 T10081039  RH  079%=      5-min Rain = 0
KSC1 200310Z 17003KT M01/M04 A303 RMK A01 T10091040  RH  079%=      5-min Rain = 0
KSC1 200311Z 17003KT M01/M04 A303 RMK A01 T10091039  RH  080%=      5-min Rain = 0
KSC1 200312Z 18003KT M01/M04 A303 RMK A01 T10091038  RH  081%=      5-min Rain = 0
KSC1 200313Z 19002KT M01/M04 A3031 RMK A01 T10101039  RH  081%=      5-min Rain = 0
KSC1 200314Z 19002KT M01/M04 A3031 RMK A01 T10091036  RH  082%=      5-min Rain = 0
KSC1 200315Z 18003KT M01/M03 A3031 RMK A01 T10061032  RH  083%=      5-min Rain = 0
KSC1 200316Z 17002KT M00/M03 A3031 RMK A01 T10031031  RH  081%=      5-min Rain = 0
KSC1 200317Z 17002KT M00/M03 A3031 RMK A01 T10021033  RH  080%=      5-min Rain = 0
KSC1 200318Z 16002KT M00/M03 A3031 RMK A01 T10021033  RH  080%=      5-min Rain = 0
KSC1 200319Z 14002KT M00/M03 A3031 RMK A01 T10031033  RH  080%=      5-min Rain = 0
KSC1 200320Z 11002KT M00/M03 A3031 RMK A01 T10041034  RH  080%=      5-min Rain = 0
KSC1 200321Z 09002KT M01/M03 A3031 RMK A01 T10051034  RH  081%=      5-min Rain = 0
KSC1 200322Z 09002KT M01/M03 A3031 RMK A01 T10051033  RH  082%=      5-min Rain = 0
KSC1 200323Z 09002KT M01/M03 A3031 RMK A01 T10061032  RH  082%=      5-min Rain = 0
KSC1 200324Z 08002KT M01/M03 A3031 RMK A01 T10061032  RH  082%=      5-min Rain = 0
KSC1 200325Z 09002KT M01/M03 A3031 RMK A01 T10071033  RH  082%=      5-min Rain = 0
KSC1 200326Z 09002KT M01/M04 A3031 RMK A01 T10081035  RH  082%=      5-min Rain = 0
KSC1 200327Z 09001KT M01/M04 A3031 RMK A01 T10081035  RH  082%=      5-min Rain = 0
KSC1 200328Z 09001KT M01/M04 A3031 RMK A01 T10081035  RH  082%=      5-min Rain = 0
KSC1 200329Z 11001KT M01/M04 A3031 RMK A01 T10081036  RH  082%=      5-min Rain = 0
KSC1 200330Z 11001KT M01/M04 A3031 RMK A01 T10081035  RH  082%=      5-min Rain = 0
KSC1 200331Z 12001KT M01/M04 A3031 RMK A01 T10071035  RH  082%=      5-min Rain = 0
KSC1 200332Z 12001KT M01/M04 A3031 RMK A01 T10081037  RH  081%=      5-min Rain = 0
KSC1 200333Z 12001KT M01/M04 A3032 RMK A01 T10091038  RH  081%=      5-min Rain = 0
KSC1 200334Z 12001KT M01/M04 A3032 RMK A01 T10111039  RH  081%=      5-min Rain = 0
KSC1 200335Z 12001KT M01/M04 A3032 RMK A01 T10111038  RH  082%=      5-min Rain = 0
KSC1 200336Z 12001KT M01/M04 A3032 RMK A01 T10111038  RH  082%=      5-min Rain = 0
KSC1 200337Z 13001KT M01/M04 A3032 RMK A01 T10131039  RH  082%=      5-min Rain = 0
KSC1 200338Z 11001KT M01/M04 A3032 RMK A01 T10131039  RH  083%=      5-min Rain = 0
KSC1 200339Z 10001KT M01/M04 A3032 RMK A01 T10131036  RH  084%=      5-min Rain = 0
KSC1 200340Z 09001KT M01/M04 A3032 RMK A01 T10121035  RH  085%=      5-min Rain = 0
KSC1 200341Z 08002KT M01/M04 A3032 RMK A01 T10121035  RH  084%=      5-min Rain = 0
KSC1 200342Z 08002KT M01/M04 A3032 RMK A01 T10111035  RH  084%=      5-min Rain = 0
KSC1 200343Z 08001KT M01/M04 A3032 RMK A01 T10111036  RH  083%=      5-min Rain = 0
KSC1 200344Z 07002KT M01/M04 A3032 RMK A01 T10111036  RH  083%=      5-min Rain = 0
KSC1 200345Z 07001KT M01/M04 A3032 RMK A01 T10111036  RH  083%=      5-min Rain = 0
KSC1 200346Z 06001KT M01/M04 A3032 RMK A01 T10111035  RH  083%=      5-min Rain = 0
KSC1 200347Z 06001KT M01/M04 A3032 RMK A01 T10101035  RH  084%=      5-min Rain = 0
KSC1 200348Z 06000KT M01/M03 A3032 RMK A01 T10111034  RH  084%=      5-min Rain = 0
KSC1 200349Z 00000KT M01/M03 A3032 RMK A01 T10111034  RH  084%=      5-min Rain = 0
KSC1 200350Z 00000KT M01/M04 A3032 RMK A01 T10111035  RH  084%=      5-min Rain = 0
KSC1 200351Z 29001KT M01/M04 A3032 RMK A01 T10121036  RH  083%=      5-min Rain = 0
KSC1 200352Z 29001KT M01/M04 A3032 RMK A01 T10121037  RH  083%=      5-min Rain = 0
KSC1 200353Z 29001KT M01/M04 A3032 RMK A01 T10121036  RH  084%=      5-min Rain = 0
KSC1 200354Z 28001KT M01/M04 A3033 RMK A01 T10131037  RH  084%=      5-min Rain = 0
KSC1 200355Z 27002KT M01/M04 A3033 RMK A01 T10141039  RH  083%=      5-min Rain = 0
KSC1 200356Z 27002KT M02/M04 A3033 RMK A01 T10151040  RH  083%=      5-min Rain = 0
KSC1 200357Z 27002KT M02/M04 A3033 RMK A01 T10151040  RH  083%=      5-min Rain = 0
KSC1 200358Z 27002KT M02/M04 A3033 RMK A01 T10151039  RH  084%=      5-min Rain = 0
KSC1 200359Z 27002KT M02/M04 A3033 RMK A01 T10151039  RH  084%=      5-min Rain = 0
KSC1 200400Z 27002KT M02/M04 A3033 RMK A01 T10171040  RH  084%=      5-min Rain = 0
KSC1 200401Z 27002KT M02/M04 A3033 RMK A01 T10181041  RH  084%=      5-min Rain = 0
KSC1 200402Z 27002KT M02/M04 A3033 RMK A01 T10181041  RH  084%=      5-min Rain = 0
KSC1 200403Z 27001KT M02/M04 A3033 RMK A01 T10181040  RH  085%=      5-min Rain = 0
KSC1 200404Z 26001KT M02/M04 A3033 RMK A01 T10181039  RH  086%=      5-min Rain = 0
KSC1 200405Z 26001KT M02/M04 A3033 RMK A01 T10181039  RH  085%=      5-min Rain = 0
KSC1 200406Z 26001KT M02/M04 A3033 RMK A01 T10191041  RH  085%=      5-min Rain = 0
KSC1 200407Z 26001KT M02/M04 A3033 RMK A01 T10191041  RH  085%=      5-min Rain = 0
KSC1 200408Z 26001KT M02/M04 A3033 RMK A01 T10191040  RH  085%=      5-min Rain = 0
KSC1 200409Z 27001KT M02/M04 A3033 RMK A01 T10191040  RH  086%=      5-min Rain = 0
KSC1 200410Z 28001KT M02/M04 A3033 RMK A01 T10191040  RH  086%=      5-min Rain = 0
KSC1 200411Z 29001KT M02/M04 A3033 RMK A01 T10171038  RH  086%=      5-min Rain = 0
KSC1 200412Z 29001KT M02/M04 A3033 RMK A01 T10161037  RH  086%=      5-min Rain = 0
KSC1 200413Z 29000KT M02/M04 A3033 RMK A01 T10161039  RH  085%=      5-min Rain = 0
KSC1 200414Z 00000KT M02/M04 A3033 RMK A01 T10171041  RH  084%=      5-min Rain = 0
KSC1 200415Z 28000KT M02/M04 A3033 RMK A01 T10191043  RH  084%=      5-min Rain = 0
KSC1 200416Z 27001KT M02/M04 A3033 RMK A01 T10201043  RH  084%=      5-min Rain = 0
KSC1 200417Z 26001KT M02/M04 A3033 RMK A01 T10201042  RH  086%=      5-min Rain = 0
KSC1 200418Z 26002KT M02/M04 A3033 RMK A01 T10201040  RH  086%=      5-min Rain = 0
KSC1 200419Z 26003KT M02/M04 A3033 RMK A01 T10201041  RH  086%=      5-min Rain = 0
KSC1 200420Z 25003KT M02/M04 A3033 RMK A01 T10211042  RH  085%=      5-min Rain = 0
KSC1 200421Z 24003KT M02/M04 A3033 RMK A01 T10221043  RH  086%=      5-min Rain = 0
KSC1 200422Z 24004KT M02/M04 A3033 RMK A01 T10221042  RH  086%=      5-min Rain = 0
KSC1 200423Z 23004KT M02/M04 A3033 RMK A01 T10221042  RH  087%=      5-min Rain = 0
KSC1 200424Z 23004KT M02/M04 A3033 RMK A01 T10231042  RH  087%=      5-min Rain = 0
KSC1 200425Z 23004KT M02/M04 A3033 RMK A01 T10231042  RH  087%=      5-min Rain = 0
KSC1 200426Z 23004KT M02/M04 A3033 RMK A01 T10231041  RH  087%=      5-min Rain = 0
KSC1 200427Z 23004KT M02/M04 A3033 RMK A01 T10231040  RH  088%=      5-min Rain = 0
KSC1 200428Z 23004KT M02/M04 A3033 RMK A01 T10221038  RH  088%=      5-min Rain = 0
KSC1 200429Z 22004KT M02/M04 A3033 RMK A01 T10211038  RH  088%=      5-min Rain = 0
KSC1 200430Z 22005KT M02/M04 A3033 RMK A01 T10211038  RH  088%=      5-min Rain = 0
KSC1 200431Z 22005KT M02/M04 A3033 RMK A01 T10211038  RH  088%=      5-min Rain = 0
KSC1 200432Z 22005KT M02/M04 A3033 RMK A01 T10201037  RH  088%=      5-min Rain = 0
KSC1 200433Z 22005KT M02/M04 A3034 RMK A01 T10191036  RH  088%=      5-min Rain = 0
KSC1 200434Z 22005KT M02/M04 A3034 RMK A01 T10181036  RH  088%=      5-min Rain = 0
KSC1 200435Z 21005KT M02/M04 A3033 RMK A01 T10171036  RH  087%=      5-min Rain = 0
KSC1 200436Z 21005KT M02/M04 A3033 RMK A01 T10171036  RH  087%=      5-min Rain = 0
KSC1 200437Z 21005KT M02/M04 A3033 RMK A01 T10171037  RH  086%=      5-min Rain = 0
KSC1 200438Z 21004KT M02/M04 A3034 RMK A01 T10171038  RH  086%=      5-min Rain = 0
KSC1 200439Z 21004KT M02/M04 A3034 RMK A01 T10171037  RH  086%=      5-min Rain = 0
KSC1 200440Z 21003KT M02/M04 A3034 RMK A01 T10161036  RH  087%=      5-min Rain = 0
KSC1 200441Z 21003KT M02/M04 A3034 RMK A01 T10161035  RH  087%=      5-min Rain = 0
KSC1 200442Z 21003KT M02/M04 A3034 RMK A01 T10161036  RH  086%=      5-min Rain = 0
KSC1 200443Z 20003KT M02/M04 A3033 RMK A01 T10161036  RH  086%=      5-min Rain = 0
KSC1 200444Z 20002KT M02/M04 A3033 RMK A01 T10161036  RH  086%=      5-min Rain = 0
KSC1 200445Z 20002KT M02/M04 A3034 RMK A01 T10161037  RH  086%=      5-min Rain = 0
KSC1 200446Z 20002KT M02/M04 A3034 RMK A01 T10171038  RH  086%=      5-min Rain = 0
KSC1 200447Z 20001KT M02/M04 A3033 RMK A01 T10171038  RH  086%=      5-min Rain = 0
KSC1 200448Z 19001KT M02/M04 A3033 RMK A01 T10181039  RH  086%=      5-min Rain = 0
KSC1 200449Z 17001KT M02/M04 A3033 RMK A01 T10191041  RH  085%=      5-min Rain = 0
KSC1 200450Z 15001KT M02/M04 A3032 RMK A01 T10201042  RH  085%=      5-min Rain = 0
KSC1 200451Z 13001KT M02/M04 A3032 RMK A01 T10201041  RH  086%=      5-min Rain = 0
KSC1 200452Z 12002KT M02/M04 A3033 RMK A01 T10211041  RH  086%=      5-min Rain = 0
KSC1 200453Z 12002KT M02/M04 A3032 RMK A01 T10221044  RH  085%=      5-min Rain = 0
KSC1 200454Z 12002KT M02/M05 A3032 RMK A01 T10231045  RH  085%=      5-min Rain = 0
KSC1 200455Z 12002KT M02/M04 A3032 RMK A01 T10231042  RH  086%=      5-min Rain = 0
KSC1 200456Z 13003KT M02/M04 A3032 RMK A01 T10221040  RH  087%=      5-min Rain = 0
KSC1 200457Z 14003KT M02/M04 A3032 RMK A01 T10211039  RH  088%=      5-min Rain = 0
KSC1 200458Z 14003KT M02/M04 A3033 RMK A01 T10221040  RH  087%=      5-min Rain = 0
KSC1 200459Z 13003KT M02/M04 A3032 RMK A01 T10221041  RH  087%=      5-min Rain = 0
KSC1 200500Z 13003KT M02/M04 A3032 RMK A01 T10221040  RH  088%=      5-min Rain = 0
KSC1 200501Z 13003KT M02/M04 A3032 RMK A01 T10211039  RH  088%=      5-min Rain = 0
KSC1 200502Z 12002KT M02/M04 A3032 RMK A01 T10211039  RH  088%=      5-min Rain = 0
KSC1 200503Z 12002KT M02/M04 A3032 RMK A01 T10221040  RH  087%=      5-min Rain = 0
KSC1 200504Z 11002KT M02/M04 A3033 RMK A01 T10221041  RH  087%=      5-min Rain = 0
KSC1 200505Z 10003KT M02/M04 A3032 RMK A01 T10231042  RH  087%=      5-min Rain = 0
KSC1 200506Z 10003KT M02/M04 A3032 RMK A01 T10231042  RH  087%=      5-min Rain = 0
KSC1 200507Z 11003KT M02/M04 A3032 RMK A01 T10241042  RH  087%=      5-min Rain = 0
KSC1 200508Z 12003KT M03/M04 A3031 RMK A01 T10251043  RH  087%=      5-min Rain = 0
KSC1 200509Z 12003KT M03/M04 A3031 RMK A01 T10251043  RH  088%=      5-min Rain = 0
KSC1 200510Z 13003KT M03/M04 A3032 RMK A01 T10261043  RH  088%=      5-min Rain = 0
KSC1 200511Z 12003KT M03/M04 A3032 RMK A01 T10261043  RH  088%=      5-min Rain = 0
KSC1 200512Z 11003KT M03/M04 A3032 RMK A01 T10271043  RH  089%=      5-min Rain = 0
KSC1 200513Z 10003KT M03/M04 A3032 RMK A01 T10271042  RH  089%=      5-min Rain = 0
KSC1 200514Z 10003KT M03/M04 A3032 RMK A01 T10271041  RH  090%=      5-min Rain = 0
KSC1 200515Z 10003KT M03/M04 A3032 RMK A01 T10261039  RH  091%=      5-min Rain = 0
KSC1 200516Z 10004KT M03/M04 A3031 RMK A01 T10251038  RH  091%=      5-min Rain = 0
KSC1 200517Z 09004KT M02/M04 A3031 RMK A01 T10241037  RH  091%=      5-min Rain = 0
KSC1 200518Z 09004KT M02/M04 A3032 RMK A01 T10231036  RH  091%=      5-min Rain = 0
KSC1 200519Z 09003KT M02/M04 A3032 RMK A01 T10231036  RH  091%=      5-min Rain = 0
KSC1 200520Z 10004KT M02/M04 A3032 RMK A01 T10231036  RH  091%=      5-min Rain = 0
KSC1 200521Z 10003KT M02/M04 A3032 RMK A01 T10221036  RH  091%=      5-min Rain = 0
KSC1 200522Z 11003KT M02/M04 A3032 RMK A01 T10221036  RH  090%=      5-min Rain = 0
KSC1 200523Z 11002KT M02/M04 A3032 RMK A01 T10211035  RH  090%=      5-min Rain = 0
KSC1 200524Z 12001KT M02/M03 A3032 RMK A01 T10201034  RH  090%=      5-min Rain = 0
KSC1 200525Z 13001KT M02/M03 A3033 RMK A01 T10181034  RH  089%=      5-min Rain = 0
KSC1 200526Z 12001KT M02/M04 A3033 RMK A01 T10171036  RH  087%=      5-min Rain = 0
KSC1 200527Z 11001KT M02/M04 A3033 RMK A01 T10171037  RH  087%=      5-min Rain = 0
KSC1 200528Z 11002KT M02/M04 A3033 RMK A01 T10171037  RH  087%=      5-min Rain = 0
KSC1 200529Z 11002KT M02/M04 A3033 RMK A01 T10171036  RH  086%=      5-min Rain = 0
KSC1 200530Z 11002KT M02/M04 A3032 RMK A01 T10171038  RH  086%=      5-min Rain = 0
KSC1 200531Z 11001KT M02/M04 A3033 RMK A01 T10171038  RH  086%=      5-min Rain = 0
KSC1 200532Z 11001KT M02/M04 A3033 RMK A01 T10171038  RH  086%=      5-min Rain = 0
KSC1 200533Z 12000KT M02/M04 A3033 RMK A01 T10171038  RH  085%=      5-min Rain = 0
KSC1 200534Z 11001KT M02/M04 A3033 RMK A01 T10171038  RH  086%=      5-min Rain = 0
KSC1 200535Z 11001KT M02/M04 A3033 RMK A01 T10171037  RH  086%=      5-min Rain = 0
KSC1 200536Z 11001KT M02/M04 A3033 RMK A01 T10161035  RH  087%=      5-min Rain = 0
KSC1 200537Z 10001KT M02/M04 A3033 RMK A01 T10171036  RH  087%=      5-min Rain = 0
KSC1 200538Z 10001KT M02/M04 A3033 RMK A01 T10181038  RH  086%=      5-min Rain = 0
KSC1 200539Z 09001KT M02/M04 A3033 RMK A01 T10191039  RH  086%=      5-min Rain = 0
KSC1 200540Z 08000KT M02/M04 A3033 RMK A01 T10201039  RH  087%=      5-min Rain = 0
KSC1 200541Z 00000KT M02/M04 A3033 RMK A01 T10211040  RH  087%=      5-min Rain = 0
KSC1 200542Z 00000KT M02/M04 A3033 RMK A01 T10211039  RH  088%=      5-min Rain = 0
KSC1 200543Z 05001KT M02/M04 A3033 RMK A01 T10221038  RH  089%=      5-min Rain = 0
KSC1 200544Z 05001KT M02/M04 A3033 RMK A01 T10221038  RH  089%=      5-min Rain = 0
KSC1 200545Z 05001KT M02/M04 A3033 RMK A01 T10221037  RH  089%=      5-min Rain = 0
KSC1 200546Z 04001KT M02/M04 A3033 RMK A01 T10221037  RH  090%=      5-min Rain = 0
KSC1 200547Z 03001KT M02/M04 A3034 RMK A01 T10221036  RH  090%=      5-min Rain = 0
KSC1 200548Z 00001KT M02/M04 A3034 RMK A01 T10221037  RH  090%=      5-min Rain = 0
KSC1 200549Z 35001KT M02/M04 A3034 RMK A01 T10231038  RH  090%=      5-min Rain = 0
KSC1 200550Z 32001KT M02/M04 A3034 RMK A01 T10231039  RH  089%=      5-min Rain = 0
KSC1 200551Z 29001KT M03/M04 A3034 RMK A01 T10251040  RH  089%=      5-min Rain = 0
KSC1 200552Z 28001KT M03/M04 A3034 RMK A01 T10251041  RH  089%=      5-min Rain = 0
KSC1 200553Z 28000KT M03/M04 A3034 RMK A01 T10251041  RH  089%=      5-min Rain = 0
KSC1 200554Z 00000KT M03/M04 A3034 RMK A01 T10251040  RH  089%=      5-min Rain = 0
KSC1 200555Z 00000KT M03/M04 A3034 RMK A01 T10251039  RH  090%=      5-min Rain = 0
KSC1 200556Z 30000KT M02/M04 A3034 RMK A01 T10231036  RH  091%=      5-min Rain = 0
KSC1 200557Z 33000KT M02/M04 A3033 RMK A01 T10231038  RH  090%=      5-min Rain = 0
KSC1 200558Z 00000KT M03/M04 A3033 RMK A01 T10251041  RH  088%=      5-min Rain = 0
KSC1 200559Z 07000KT M03/M04 A3033 RMK A01 T10251042  RH  088%=      5-min Rain = 0

Page generated in 0.1253 seconds.